<?xml version="1.0" encoding="UTF-8" standalone="no" ?>
<gpx xmlns="http://www.topografix.com/GPX/1/1" xmlns:xsi="http://www.w3.org/2001/XMLSchema-instance" xsi:schemaLocation="http://www.topografix.com/GPX/1/1 http://www.topografix.com/GPX/1/1/gpx.xsd" version="1.1" creator="VisuGPX - https://www.visugpx.com">
  <metadata>
    <name>st Marcel</name>
    <desc><![CDATA[Barraux Chapareillan bellecombe StMarcel]]></desc>
  </metadata>
  <trk>
    <name><![CDATA[st marcel]]></name>
    <desc><![CDATA[<h1>OruxMaps</h1><br /><hr align="center" width="480" style="height: 2px; width: 517px"/><h2>Nom: st marcel</h2><br /><p>Temps de départ: 04/12/2014 16:06</p><p>Temps d'arrivée: 04/12/2014 19:33</p><p>Distance: 17,8 km (03:27)</p><p>Temps déplacement: 01:26</p><p>Vitesse moyenne: 5,1 km/h</p><p>Vitesse moyenne: 12,4 km/h</p><p>Vitess Max.: 53,8 km/h</p><p>Altitude minimale: 276 m</p><p>Altitude maximale: 824 m</p><p>Vitesse d'élévation: 860,3 m/h</p><p>Vitesse de descente: -414,8 m/h</p><p>Gain Altitude: 857 m</p><p>Perte Altitude: -863 m</p><p>Temps d'élévation: 00:59</p><p>Temps de descente: 02:04</p><hr align="center" width="480" style="height: 2px; width: 517px"/>]]></desc>
    <trkseg>
      <trkpt lat="45.42914" lon="5.98393">
        <ele>322.08</ele>
        <time>2014-04-12T14:06:17Z</time>
      </trkpt>
      <trkpt lat="45.42916" lon="5.98365">
        <ele>331.06</ele>
        <time>2014-04-12T14:07:53Z</time>
      </trkpt>
      <trkpt lat="45.42928" lon="5.98338">
        <ele>330.06</ele>
        <time>2014-04-12T14:07:59Z</time>
      </trkpt>
      <trkpt lat="45.42938" lon="5.98307">
        <ele>330.51</ele>
        <time>2014-04-12T14:08:03Z</time>
      </trkpt>
      <trkpt lat="45.42956" lon="5.9829">
        <ele>329.89</ele>
        <time>2014-04-12T14:08:07Z</time>
      </trkpt>
      <trkpt lat="45.42967" lon="5.98268">
        <ele>331.99</ele>
        <time>2014-04-12T14:08:10Z</time>
      </trkpt>
      <trkpt lat="45.42983" lon="5.98247">
        <ele>329.1</ele>
        <time>2014-04-12T14:08:14Z</time>
      </trkpt>
      <trkpt lat="45.42995" lon="5.98221">
        <ele>329.41</ele>
        <time>2014-04-12T14:08:18Z</time>
      </trkpt>
      <trkpt lat="45.43007" lon="5.982">
        <ele>327.17</ele>
        <time>2014-04-12T14:08:22Z</time>
      </trkpt>
      <trkpt lat="45.4302" lon="5.98177">
        <ele>327.17</ele>
        <time>2014-04-12T14:08:26Z</time>
      </trkpt>
      <trkpt lat="45.43036" lon="5.98159">
        <ele>324.59</ele>
        <time>2014-04-12T14:08:31Z</time>
      </trkpt>
      <trkpt lat="45.43054" lon="5.98151">
        <ele>328.21</ele>
        <time>2014-04-12T14:08:38Z</time>
      </trkpt>
      <trkpt lat="45.43075" lon="5.98147">
        <ele>331.45</ele>
        <time>2014-04-12T14:08:45Z</time>
      </trkpt>
      <trkpt lat="45.43093" lon="5.98145">
        <ele>330.62</ele>
        <time>2014-04-12T14:08:49Z</time>
      </trkpt>
      <trkpt lat="45.43115" lon="5.98146">
        <ele>332.93</ele>
        <time>2014-04-12T14:08:53Z</time>
      </trkpt>
      <trkpt lat="45.43134" lon="5.98146">
        <ele>334.84</ele>
        <time>2014-04-12T14:08:57Z</time>
      </trkpt>
      <trkpt lat="45.43147" lon="5.98126">
        <ele>330.42</ele>
        <time>2014-04-12T14:09:02Z</time>
      </trkpt>
      <trkpt lat="45.43157" lon="5.98103">
        <ele>320.97</ele>
        <time>2014-04-12T14:09:09Z</time>
      </trkpt>
      <trkpt lat="45.43164" lon="5.9808">
        <ele>318.12</ele>
        <time>2014-04-12T14:09:16Z</time>
      </trkpt>
      <trkpt lat="45.4317" lon="5.98051">
        <ele>319.67</ele>
        <time>2014-04-12T14:09:23Z</time>
      </trkpt>
      <trkpt lat="45.43188" lon="5.98051">
        <ele>325.18</ele>
        <time>2014-04-12T14:09:33Z</time>
      </trkpt>
      <trkpt lat="45.43208" lon="5.98063">
        <ele>329.34</ele>
        <time>2014-04-12T14:09:38Z</time>
      </trkpt>
      <trkpt lat="45.43228" lon="5.98074">
        <ele>336.5</ele>
        <time>2014-04-12T14:09:42Z</time>
      </trkpt>
      <trkpt lat="45.4325" lon="5.98087">
        <ele>336.81</ele>
        <time>2014-04-12T14:09:47Z</time>
      </trkpt>
      <trkpt lat="45.43268" lon="5.98083">
        <ele>338.8</ele>
        <time>2014-04-12T14:09:51Z</time>
      </trkpt>
      <trkpt lat="45.43284" lon="5.98064">
        <ele>335.84</ele>
        <time>2014-04-12T14:09:56Z</time>
      </trkpt>
      <trkpt lat="45.43299" lon="5.98049">
        <ele>337.28</ele>
        <time>2014-04-12T14:10:01Z</time>
      </trkpt>
      <trkpt lat="45.43319" lon="5.98056">
        <ele>344.77</ele>
        <time>2014-04-12T14:10:11Z</time>
      </trkpt>
      <trkpt lat="45.43336" lon="5.98073">
        <ele>339.87</ele>
        <time>2014-04-12T14:10:19Z</time>
      </trkpt>
      <trkpt lat="45.4335" lon="5.98089">
        <ele>347.33</ele>
        <time>2014-04-12T14:10:29Z</time>
      </trkpt>
      <trkpt lat="45.43369" lon="5.98099">
        <ele>345.61</ele>
        <time>2014-04-12T14:10:37Z</time>
      </trkpt>
      <trkpt lat="45.43388" lon="5.98102">
        <ele>344.19</ele>
        <time>2014-04-12T14:10:42Z</time>
      </trkpt>
      <trkpt lat="45.43406" lon="5.98092">
        <ele>343.76</ele>
        <time>2014-04-12T14:10:53Z</time>
      </trkpt>
      <trkpt lat="45.43419" lon="5.98073">
        <ele>343.61</ele>
        <time>2014-04-12T14:11:03Z</time>
      </trkpt>
      <trkpt lat="45.43424" lon="5.98048">
        <ele>337.99</ele>
        <time>2014-04-12T14:11:09Z</time>
      </trkpt>
      <trkpt lat="45.43432" lon="5.98023">
        <ele>335.66</ele>
        <time>2014-04-12T14:11:17Z</time>
      </trkpt>
      <trkpt lat="45.43439" lon="5.97996">
        <ele>334.87</ele>
        <time>2014-04-12T14:11:24Z</time>
      </trkpt>
      <trkpt lat="45.43447" lon="5.97971">
        <ele>331.67</ele>
        <time>2014-04-12T14:11:31Z</time>
      </trkpt>
      <trkpt lat="45.43456" lon="5.97942">
        <ele>334.77</ele>
        <time>2014-04-12T14:11:38Z</time>
      </trkpt>
      <trkpt lat="45.43458" lon="5.97913">
        <ele>344.45</ele>
        <time>2014-04-12T14:11:43Z</time>
      </trkpt>
      <trkpt lat="45.43459" lon="5.97885">
        <ele>352.77</ele>
        <time>2014-04-12T14:11:49Z</time>
      </trkpt>
      <trkpt lat="45.43464" lon="5.97858">
        <ele>357.85</ele>
        <time>2014-04-12T14:11:56Z</time>
      </trkpt>
      <trkpt lat="45.43462" lon="5.97832">
        <ele>357.29</ele>
        <time>2014-04-12T14:12:03Z</time>
      </trkpt>
      <trkpt lat="45.43482" lon="5.97841">
        <ele>357.19</ele>
        <time>2014-04-12T14:12:11Z</time>
      </trkpt>
      <trkpt lat="45.43501" lon="5.97848">
        <ele>353.21</ele>
        <time>2014-04-12T14:12:17Z</time>
      </trkpt>
      <trkpt lat="45.43521" lon="5.97844">
        <ele>356.3</ele>
        <time>2014-04-12T14:12:23Z</time>
      </trkpt>
      <trkpt lat="45.43541" lon="5.97843">
        <ele>350.87</ele>
        <time>2014-04-12T14:12:31Z</time>
      </trkpt>
      <trkpt lat="45.43561" lon="5.97843">
        <ele>348.66</ele>
        <time>2014-04-12T14:12:36Z</time>
      </trkpt>
      <trkpt lat="45.4358" lon="5.97847">
        <ele>349.38</ele>
        <time>2014-04-12T14:12:40Z</time>
      </trkpt>
      <trkpt lat="45.43603" lon="5.97847">
        <ele>345.27</ele>
        <time>2014-04-12T14:12:44Z</time>
      </trkpt>
      <trkpt lat="45.43626" lon="5.97847">
        <ele>340.61</ele>
        <time>2014-04-12T14:12:48Z</time>
      </trkpt>
      <trkpt lat="45.43646" lon="5.97851">
        <ele>343.46</ele>
        <time>2014-04-12T14:12:52Z</time>
      </trkpt>
      <trkpt lat="45.43665" lon="5.97858">
        <ele>350.08</ele>
        <time>2014-04-12T14:12:56Z</time>
      </trkpt>
      <trkpt lat="45.43689" lon="5.97867">
        <ele>352.58</ele>
        <time>2014-04-12T14:13:06Z</time>
      </trkpt>
      <trkpt lat="45.43711" lon="5.97879">
        <ele>351.71</ele>
        <time>2014-04-12T14:13:10Z</time>
      </trkpt>
      <trkpt lat="45.43728" lon="5.97891">
        <ele>353.36</ele>
        <time>2014-04-12T14:13:15Z</time>
      </trkpt>
      <trkpt lat="45.43745" lon="5.979">
        <ele>351.32</ele>
        <time>2014-04-12T14:13:19Z</time>
      </trkpt>
      <trkpt lat="45.43766" lon="5.97908">
        <ele>349.05</ele>
        <time>2014-04-12T14:13:24Z</time>
      </trkpt>
      <trkpt lat="45.43785" lon="5.97918">
        <ele>350.15</ele>
        <time>2014-04-12T14:13:29Z</time>
      </trkpt>
      <trkpt lat="45.43802" lon="5.97927">
        <ele>352.84</ele>
        <time>2014-04-12T14:13:34Z</time>
      </trkpt>
      <trkpt lat="45.43822" lon="5.97939">
        <ele>356.16</ele>
        <time>2014-04-12T14:13:39Z</time>
      </trkpt>
      <trkpt lat="45.43839" lon="5.97948">
        <ele>359.36</ele>
        <time>2014-04-12T14:13:43Z</time>
      </trkpt>
      <trkpt lat="45.43856" lon="5.97956">
        <ele>360</ele>
        <time>2014-04-12T14:13:47Z</time>
      </trkpt>
      <trkpt lat="45.43875" lon="5.97969">
        <ele>359.32</ele>
        <time>2014-04-12T14:13:53Z</time>
      </trkpt>
      <trkpt lat="45.43892" lon="5.9798">
        <ele>357.7</ele>
        <time>2014-04-12T14:13:57Z</time>
      </trkpt>
      <trkpt lat="45.43912" lon="5.97994">
        <ele>355.81</ele>
        <time>2014-04-12T14:14:02Z</time>
      </trkpt>
      <trkpt lat="45.43934" lon="5.98002">
        <ele>352.93</ele>
        <time>2014-04-12T14:14:06Z</time>
      </trkpt>
      <trkpt lat="45.43952" lon="5.98007">
        <ele>356.73</ele>
        <time>2014-04-12T14:14:09Z</time>
      </trkpt>
      <trkpt lat="45.43972" lon="5.98012">
        <ele>357.68</ele>
        <time>2014-04-12T14:14:13Z</time>
      </trkpt>
      <trkpt lat="45.43993" lon="5.98018">
        <ele>357.92</ele>
        <time>2014-04-12T14:14:17Z</time>
      </trkpt>
      <trkpt lat="45.44015" lon="5.98025">
        <ele>357.78</ele>
        <time>2014-04-12T14:14:21Z</time>
      </trkpt>
      <trkpt lat="45.44033" lon="5.9803">
        <ele>357.26</ele>
        <time>2014-04-12T14:14:24Z</time>
      </trkpt>
      <trkpt lat="45.44053" lon="5.98035">
        <ele>358.49</ele>
        <time>2014-04-12T14:14:27Z</time>
      </trkpt>
      <trkpt lat="45.44075" lon="5.98038">
        <ele>357.95</ele>
        <time>2014-04-12T14:14:31Z</time>
      </trkpt>
      <trkpt lat="45.44096" lon="5.98038">
        <ele>359.14</ele>
        <time>2014-04-12T14:14:35Z</time>
      </trkpt>
      <trkpt lat="45.44115" lon="5.98032">
        <ele>357.29</ele>
        <time>2014-04-12T14:14:38Z</time>
      </trkpt>
      <trkpt lat="45.44133" lon="5.98026">
        <ele>355.68</ele>
        <time>2014-04-12T14:14:41Z</time>
      </trkpt>
      <trkpt lat="45.44154" lon="5.98022">
        <ele>353.31</ele>
        <time>2014-04-12T14:14:44Z</time>
      </trkpt>
      <trkpt lat="45.44173" lon="5.98022">
        <ele>351.84</ele>
        <time>2014-04-12T14:14:47Z</time>
      </trkpt>
      <trkpt lat="45.44194" lon="5.98024">
        <ele>351.13</ele>
        <time>2014-04-12T14:14:50Z</time>
      </trkpt>
      <trkpt lat="45.44219" lon="5.98028">
        <ele>352.87</ele>
        <time>2014-04-12T14:14:53Z</time>
      </trkpt>
      <trkpt lat="45.44243" lon="5.98035">
        <ele>354.47</ele>
        <time>2014-04-12T14:14:56Z</time>
      </trkpt>
      <trkpt lat="45.44261" lon="5.98043">
        <ele>352.91</ele>
        <time>2014-04-12T14:14:59Z</time>
      </trkpt>
      <trkpt lat="45.44279" lon="5.98051">
        <ele>348.42</ele>
        <time>2014-04-12T14:15:02Z</time>
      </trkpt>
      <trkpt lat="45.443" lon="5.98061">
        <ele>344.76</ele>
        <time>2014-04-12T14:15:06Z</time>
      </trkpt>
      <trkpt lat="45.4432" lon="5.98071">
        <ele>350.37</ele>
        <time>2014-04-12T14:15:10Z</time>
      </trkpt>
      <trkpt lat="45.44339" lon="5.98078">
        <ele>351.24</ele>
        <time>2014-04-12T14:15:14Z</time>
      </trkpt>
      <trkpt lat="45.44358" lon="5.98079">
        <ele>354.33</ele>
        <time>2014-04-12T14:15:19Z</time>
      </trkpt>
      <trkpt lat="45.44376" lon="5.98075">
        <ele>356.23</ele>
        <time>2014-04-12T14:15:24Z</time>
      </trkpt>
      <trkpt lat="45.44394" lon="5.98061">
        <ele>361.44</ele>
        <time>2014-04-12T14:15:30Z</time>
      </trkpt>
      <trkpt lat="45.44385" lon="5.98039">
        <ele>359.64</ele>
        <time>2014-04-12T14:15:38Z</time>
      </trkpt>
      <trkpt lat="45.44366" lon="5.98026">
        <ele>356.22</ele>
        <time>2014-04-12T14:15:44Z</time>
      </trkpt>
      <trkpt lat="45.44381" lon="5.98041">
        <ele>359.85</ele>
        <time>2014-04-12T14:17:40Z</time>
      </trkpt>
      <trkpt lat="45.44398" lon="5.98052">
        <ele>355.19</ele>
        <time>2014-04-12T14:17:48Z</time>
      </trkpt>
      <trkpt lat="45.44381" lon="5.98074">
        <ele>352.28</ele>
        <time>2014-04-12T14:17:55Z</time>
      </trkpt>
      <trkpt lat="45.44361" lon="5.98081">
        <ele>348.89</ele>
        <time>2014-04-12T14:17:59Z</time>
      </trkpt>
      <trkpt lat="45.44374" lon="5.98104">
        <ele>348.31</ele>
        <time>2014-04-12T14:18:08Z</time>
      </trkpt>
      <trkpt lat="45.44389" lon="5.98119">
        <ele>351.14</ele>
        <time>2014-04-12T14:18:13Z</time>
      </trkpt>
      <trkpt lat="45.44405" lon="5.98136">
        <ele>354.44</ele>
        <time>2014-04-12T14:18:19Z</time>
      </trkpt>
      <trkpt lat="45.4442" lon="5.98149">
        <ele>352.88</ele>
        <time>2014-04-12T14:18:25Z</time>
      </trkpt>
      <trkpt lat="45.44437" lon="5.98167">
        <ele>348.61</ele>
        <time>2014-04-12T14:18:31Z</time>
      </trkpt>
      <trkpt lat="45.44452" lon="5.98182">
        <ele>342.39</ele>
        <time>2014-04-12T14:18:37Z</time>
      </trkpt>
      <trkpt lat="45.44469" lon="5.98199">
        <ele>340.08</ele>
        <time>2014-04-12T14:18:43Z</time>
      </trkpt>
      <trkpt lat="45.44486" lon="5.98209">
        <ele>334.49</ele>
        <time>2014-04-12T14:18:48Z</time>
      </trkpt>
      <trkpt lat="45.44503" lon="5.98215">
        <ele>339.94</ele>
        <time>2014-04-12T14:18:53Z</time>
      </trkpt>
      <trkpt lat="45.44521" lon="5.98227">
        <ele>344.81</ele>
        <time>2014-04-12T14:18:58Z</time>
      </trkpt>
      <trkpt lat="45.44537" lon="5.98239">
        <ele>335.26</ele>
        <time>2014-04-12T14:19:03Z</time>
      </trkpt>
      <trkpt lat="45.44551" lon="5.98257">
        <ele>328.98</ele>
        <time>2014-04-12T14:19:07Z</time>
      </trkpt>
      <trkpt lat="45.44572" lon="5.98274">
        <ele>333.74</ele>
        <time>2014-04-12T14:19:11Z</time>
      </trkpt>
      <trkpt lat="45.44589" lon="5.98286">
        <ele>337.9</ele>
        <time>2014-04-12T14:19:14Z</time>
      </trkpt>
      <trkpt lat="45.44606" lon="5.983">
        <ele>342.29</ele>
        <time>2014-04-12T14:19:17Z</time>
      </trkpt>
      <trkpt lat="45.44623" lon="5.98313">
        <ele>344.69</ele>
        <time>2014-04-12T14:19:20Z</time>
      </trkpt>
      <trkpt lat="45.4464" lon="5.98324">
        <ele>344.86</ele>
        <time>2014-04-12T14:19:23Z</time>
      </trkpt>
      <trkpt lat="45.4466" lon="5.98338">
        <ele>343.19</ele>
        <time>2014-04-12T14:19:27Z</time>
      </trkpt>
      <trkpt lat="45.44677" lon="5.98349">
        <ele>343.28</ele>
        <time>2014-04-12T14:19:31Z</time>
      </trkpt>
      <trkpt lat="45.44694" lon="5.98359">
        <ele>345.15</ele>
        <time>2014-04-12T14:19:35Z</time>
      </trkpt>
      <trkpt lat="45.44713" lon="5.98369">
        <ele>348.4</ele>
        <time>2014-04-12T14:19:40Z</time>
      </trkpt>
      <trkpt lat="45.44733" lon="5.98372">
        <ele>343.56</ele>
        <time>2014-04-12T14:19:47Z</time>
      </trkpt>
      <trkpt lat="45.44752" lon="5.98375">
        <ele>343.48</ele>
        <time>2014-04-12T14:19:53Z</time>
      </trkpt>
      <trkpt lat="45.44777" lon="5.98379">
        <ele>346.92</ele>
        <time>2014-04-12T14:20:01Z</time>
      </trkpt>
      <trkpt lat="45.44795" lon="5.98378">
        <ele>359.19</ele>
        <time>2014-04-12T14:20:10Z</time>
      </trkpt>
      <trkpt lat="45.44814" lon="5.9837">
        <ele>362.17</ele>
        <time>2014-04-12T14:20:20Z</time>
      </trkpt>
      <trkpt lat="45.44832" lon="5.98369">
        <ele>353.1</ele>
        <time>2014-04-12T14:20:30Z</time>
      </trkpt>
      <trkpt lat="45.44852" lon="5.98371">
        <ele>352.9</ele>
        <time>2014-04-12T14:20:40Z</time>
      </trkpt>
      <trkpt lat="45.44872" lon="5.98379">
        <ele>355.42</ele>
        <time>2014-04-12T14:20:49Z</time>
      </trkpt>
      <trkpt lat="45.44888" lon="5.98396">
        <ele>357.24</ele>
        <time>2014-04-12T14:20:57Z</time>
      </trkpt>
      <trkpt lat="45.44903" lon="5.98413">
        <ele>368.59</ele>
        <time>2014-04-12T14:21:05Z</time>
      </trkpt>
      <trkpt lat="45.44918" lon="5.9843">
        <ele>377.26</ele>
        <time>2014-04-12T14:21:16Z</time>
      </trkpt>
      <trkpt lat="45.44942" lon="5.98432">
        <ele>375.26</ele>
        <time>2014-04-12T14:21:39Z</time>
      </trkpt>
      <trkpt lat="45.4497" lon="5.98434">
        <ele>394.24</ele>
        <time>2014-04-12T14:21:51Z</time>
      </trkpt>
      <trkpt lat="45.4499" lon="5.98431">
        <ele>392.65</ele>
        <time>2014-04-12T14:22:06Z</time>
      </trkpt>
      <trkpt lat="45.45025" lon="5.98433">
        <ele>406.51</ele>
        <time>2014-04-12T14:22:25Z</time>
      </trkpt>
      <trkpt lat="45.45047" lon="5.98431">
        <ele>406.8</ele>
        <time>2014-04-12T14:22:28Z</time>
      </trkpt>
      <trkpt lat="45.45073" lon="5.98433">
        <ele>410.28</ele>
        <time>2014-04-12T14:22:37Z</time>
      </trkpt>
      <trkpt lat="45.45093" lon="5.98441">
        <ele>416.37</ele>
        <time>2014-04-12T14:22:43Z</time>
      </trkpt>
      <trkpt lat="45.45109" lon="5.98453">
        <ele>410.46</ele>
        <time>2014-04-12T14:22:51Z</time>
      </trkpt>
      <trkpt lat="45.45126" lon="5.98463">
        <ele>396.83</ele>
        <time>2014-04-12T14:23:03Z</time>
      </trkpt>
      <trkpt lat="45.45152" lon="5.98475">
        <ele>398.35</ele>
        <time>2014-04-12T14:23:26Z</time>
      </trkpt>
      <trkpt lat="45.45173" lon="5.98487">
        <ele>402.23</ele>
        <time>2014-04-12T14:23:36Z</time>
      </trkpt>
      <trkpt lat="45.45195" lon="5.98493">
        <ele>409.43</ele>
        <time>2014-04-12T14:23:41Z</time>
      </trkpt>
      <trkpt lat="45.45214" lon="5.98505">
        <ele>400.64</ele>
        <time>2014-04-12T14:23:51Z</time>
      </trkpt>
      <trkpt lat="45.45241" lon="5.98505">
        <ele>387.54</ele>
        <time>2014-04-12T14:24:14Z</time>
      </trkpt>
      <trkpt lat="45.45263" lon="5.985">
        <ele>384.22</ele>
        <time>2014-04-12T14:24:23Z</time>
      </trkpt>
      <trkpt lat="45.45283" lon="5.98495">
        <ele>382.89</ele>
        <time>2014-04-12T14:24:29Z</time>
      </trkpt>
      <trkpt lat="45.45305" lon="5.98505">
        <ele>375.38</ele>
        <time>2014-04-12T14:24:33Z</time>
      </trkpt>
      <trkpt lat="45.45328" lon="5.98504">
        <ele>369.18</ele>
        <time>2014-04-12T14:24:36Z</time>
      </trkpt>
      <trkpt lat="45.45349" lon="5.98477">
        <ele>371.18</ele>
        <time>2014-04-12T14:24:39Z</time>
      </trkpt>
      <trkpt lat="45.45363" lon="5.98453">
        <ele>374.67</ele>
        <time>2014-04-12T14:24:41Z</time>
      </trkpt>
      <trkpt lat="45.45377" lon="5.98429">
        <ele>377.32</ele>
        <time>2014-04-12T14:24:46Z</time>
      </trkpt>
      <trkpt lat="45.45377" lon="5.98402">
        <ele>386.66</ele>
        <time>2014-04-12T14:24:55Z</time>
      </trkpt>
      <trkpt lat="45.45378" lon="5.98376">
        <ele>383.6</ele>
        <time>2014-04-12T14:25:06Z</time>
      </trkpt>
      <trkpt lat="45.45393" lon="5.9836">
        <ele>385.86</ele>
        <time>2014-04-12T14:25:16Z</time>
      </trkpt>
      <trkpt lat="45.4541" lon="5.98351">
        <ele>386.68</ele>
        <time>2014-04-12T14:25:27Z</time>
      </trkpt>
      <trkpt lat="45.45421" lon="5.9833">
        <ele>380.84</ele>
        <time>2014-04-12T14:25:37Z</time>
      </trkpt>
      <trkpt lat="45.45428" lon="5.98304">
        <ele>383.86</ele>
        <time>2014-04-12T14:25:42Z</time>
      </trkpt>
      <trkpt lat="45.45431" lon="5.98277">
        <ele>380.34</ele>
        <time>2014-04-12T14:25:46Z</time>
      </trkpt>
      <trkpt lat="45.45431" lon="5.98248">
        <ele>373.03</ele>
        <time>2014-04-12T14:25:50Z</time>
      </trkpt>
      <trkpt lat="45.45435" lon="5.98222">
        <ele>370.85</ele>
        <time>2014-04-12T14:26:02Z</time>
      </trkpt>
      <trkpt lat="45.45454" lon="5.98206">
        <ele>372.81</ele>
        <time>2014-04-12T14:26:08Z</time>
      </trkpt>
      <trkpt lat="45.45471" lon="5.98187">
        <ele>362.64</ele>
        <time>2014-04-12T14:26:13Z</time>
      </trkpt>
      <trkpt lat="45.45483" lon="5.98166">
        <ele>357.98</ele>
        <time>2014-04-12T14:26:16Z</time>
      </trkpt>
      <trkpt lat="45.45495" lon="5.98146">
        <ele>362.56</ele>
        <time>2014-04-12T14:26:20Z</time>
      </trkpt>
      <trkpt lat="45.45511" lon="5.98128">
        <ele>359.79</ele>
        <time>2014-04-12T14:26:25Z</time>
      </trkpt>
      <trkpt lat="45.45526" lon="5.9811">
        <ele>357.64</ele>
        <time>2014-04-12T14:26:28Z</time>
      </trkpt>
      <trkpt lat="45.45535" lon="5.98084">
        <ele>348.97</ele>
        <time>2014-04-12T14:26:32Z</time>
      </trkpt>
      <trkpt lat="45.45552" lon="5.9807">
        <ele>343.13</ele>
        <time>2014-04-12T14:26:39Z</time>
      </trkpt>
      <trkpt lat="45.45572" lon="5.98078">
        <ele>330.07</ele>
        <time>2014-04-12T14:26:47Z</time>
      </trkpt>
      <trkpt lat="45.45581" lon="5.98102">
        <ele>328.51</ele>
        <time>2014-04-12T14:26:56Z</time>
      </trkpt>
      <trkpt lat="45.45586" lon="5.9813">
        <ele>324.69</ele>
        <time>2014-04-12T14:27:01Z</time>
      </trkpt>
      <trkpt lat="45.45586" lon="5.98161">
        <ele>329.08</ele>
        <time>2014-04-12T14:27:29Z</time>
      </trkpt>
      <trkpt lat="45.45574" lon="5.98185">
        <ele>315.99</ele>
        <time>2014-04-12T14:27:33Z</time>
      </trkpt>
      <trkpt lat="45.45561" lon="5.98207">
        <ele>309.5</ele>
        <time>2014-04-12T14:27:37Z</time>
      </trkpt>
      <trkpt lat="45.45542" lon="5.98218">
        <ele>298.28</ele>
        <time>2014-04-12T14:27:42Z</time>
      </trkpt>
      <trkpt lat="45.45526" lon="5.9823">
        <ele>300.43</ele>
        <time>2014-04-12T14:27:46Z</time>
      </trkpt>
      <trkpt lat="45.45515" lon="5.98256">
        <ele>303.76</ele>
        <time>2014-04-12T14:27:50Z</time>
      </trkpt>
      <trkpt lat="45.45508" lon="5.9828">
        <ele>309.13</ele>
        <time>2014-04-12T14:27:54Z</time>
      </trkpt>
      <trkpt lat="45.45506" lon="5.98311">
        <ele>304.3</ele>
        <time>2014-04-12T14:27:57Z</time>
      </trkpt>
      <trkpt lat="45.4551" lon="5.98337">
        <ele>290.69</ele>
        <time>2014-04-12T14:28:01Z</time>
      </trkpt>
      <trkpt lat="45.45524" lon="5.98356">
        <ele>293.21</ele>
        <time>2014-04-12T14:28:03Z</time>
      </trkpt>
      <trkpt lat="45.45536" lon="5.98375">
        <ele>296</ele>
        <time>2014-04-12T14:28:05Z</time>
      </trkpt>
      <trkpt lat="45.45548" lon="5.98402">
        <ele>294.37</ele>
        <time>2014-04-12T14:28:08Z</time>
      </trkpt>
      <trkpt lat="45.45561" lon="5.98423">
        <ele>300.91</ele>
        <time>2014-04-12T14:28:11Z</time>
      </trkpt>
      <trkpt lat="45.45573" lon="5.98442">
        <ele>307.17</ele>
        <time>2014-04-12T14:28:14Z</time>
      </trkpt>
      <trkpt lat="45.45589" lon="5.98464">
        <ele>312.42</ele>
        <time>2014-04-12T14:28:18Z</time>
      </trkpt>
      <trkpt lat="45.45614" lon="5.98467">
        <ele>316.82</ele>
        <time>2014-04-12T14:28:22Z</time>
      </trkpt>
      <trkpt lat="45.45634" lon="5.98461">
        <ele>316.16</ele>
        <time>2014-04-12T14:28:26Z</time>
      </trkpt>
      <trkpt lat="45.45657" lon="5.98462">
        <ele>313.23</ele>
        <time>2014-04-12T14:28:29Z</time>
      </trkpt>
      <trkpt lat="45.45679" lon="5.98472">
        <ele>312.59</ele>
        <time>2014-04-12T14:28:32Z</time>
      </trkpt>
      <trkpt lat="45.45695" lon="5.98491">
        <ele>311.99</ele>
        <time>2014-04-12T14:28:35Z</time>
      </trkpt>
      <trkpt lat="45.45705" lon="5.98519">
        <ele>311.93</ele>
        <time>2014-04-12T14:28:38Z</time>
      </trkpt>
      <trkpt lat="45.45706" lon="5.98555">
        <ele>310.38</ele>
        <time>2014-04-12T14:28:41Z</time>
      </trkpt>
      <trkpt lat="45.45708" lon="5.98589">
        <ele>308.68</ele>
        <time>2014-04-12T14:28:44Z</time>
      </trkpt>
      <trkpt lat="45.45718" lon="5.98618">
        <ele>307.64</ele>
        <time>2014-04-12T14:28:47Z</time>
      </trkpt>
      <trkpt lat="45.45735" lon="5.98636">
        <ele>303.87</ele>
        <time>2014-04-12T14:28:50Z</time>
      </trkpt>
      <trkpt lat="45.45754" lon="5.98652">
        <ele>305.06</ele>
        <time>2014-04-12T14:28:53Z</time>
      </trkpt>
      <trkpt lat="45.45772" lon="5.98662">
        <ele>306.47</ele>
        <time>2014-04-12T14:28:56Z</time>
      </trkpt>
      <trkpt lat="45.45799" lon="5.98671">
        <ele>305.04</ele>
        <time>2014-04-12T14:29:01Z</time>
      </trkpt>
      <trkpt lat="45.45822" lon="5.98685">
        <ele>302.82</ele>
        <time>2014-04-12T14:29:05Z</time>
      </trkpt>
      <trkpt lat="45.45844" lon="5.98701">
        <ele>296.21</ele>
        <time>2014-04-12T14:29:08Z</time>
      </trkpt>
      <trkpt lat="45.45865" lon="5.98719">
        <ele>292.05</ele>
        <time>2014-04-12T14:29:11Z</time>
      </trkpt>
      <trkpt lat="45.45883" lon="5.98742">
        <ele>290.9</ele>
        <time>2014-04-12T14:29:14Z</time>
      </trkpt>
      <trkpt lat="45.45897" lon="5.98761">
        <ele>291.62</ele>
        <time>2014-04-12T14:29:17Z</time>
      </trkpt>
      <trkpt lat="45.4591" lon="5.98787">
        <ele>288.27</ele>
        <time>2014-04-12T14:29:20Z</time>
      </trkpt>
      <trkpt lat="45.45924" lon="5.98808">
        <ele>290.62</ele>
        <time>2014-04-12T14:29:23Z</time>
      </trkpt>
      <trkpt lat="45.45937" lon="5.98827">
        <ele>290.41</ele>
        <time>2014-04-12T14:29:26Z</time>
      </trkpt>
      <trkpt lat="45.45955" lon="5.98846">
        <ele>291.6</ele>
        <time>2014-04-12T14:29:29Z</time>
      </trkpt>
      <trkpt lat="45.45973" lon="5.98863">
        <ele>291.54</ele>
        <time>2014-04-12T14:29:32Z</time>
      </trkpt>
      <trkpt lat="45.45992" lon="5.98875">
        <ele>290</ele>
        <time>2014-04-12T14:29:35Z</time>
      </trkpt>
      <trkpt lat="45.4601" lon="5.98888">
        <ele>288.95</ele>
        <time>2014-04-12T14:29:38Z</time>
      </trkpt>
      <trkpt lat="45.46028" lon="5.98905">
        <ele>285.64</ele>
        <time>2014-04-12T14:29:41Z</time>
      </trkpt>
      <trkpt lat="45.46046" lon="5.9892">
        <ele>283.67</ele>
        <time>2014-04-12T14:29:44Z</time>
      </trkpt>
      <trkpt lat="45.46068" lon="5.98929">
        <ele>283.34</ele>
        <time>2014-04-12T14:29:48Z</time>
      </trkpt>
      <trkpt lat="45.4609" lon="5.98926">
        <ele>284.93</ele>
        <time>2014-04-12T14:29:53Z</time>
      </trkpt>
      <trkpt lat="45.46113" lon="5.98925">
        <ele>287.1</ele>
        <time>2014-04-12T14:29:57Z</time>
      </trkpt>
      <trkpt lat="45.46136" lon="5.98925">
        <ele>288.61</ele>
        <time>2014-04-12T14:30:01Z</time>
      </trkpt>
      <trkpt lat="45.46157" lon="5.98941">
        <ele>285.17</ele>
        <time>2014-04-12T14:30:06Z</time>
      </trkpt>
      <trkpt lat="45.46176" lon="5.98952">
        <ele>284.46</ele>
        <time>2014-04-12T14:30:10Z</time>
      </trkpt>
      <trkpt lat="45.46196" lon="5.98965">
        <ele>282.01</ele>
        <time>2014-04-12T14:30:15Z</time>
      </trkpt>
      <trkpt lat="45.46213" lon="5.98976">
        <ele>285.17</ele>
        <time>2014-04-12T14:30:20Z</time>
      </trkpt>
      <trkpt lat="45.46233" lon="5.98991">
        <ele>288.88</ele>
        <time>2014-04-12T14:30:25Z</time>
      </trkpt>
      <trkpt lat="45.46249" lon="5.99006">
        <ele>288.32</ele>
        <time>2014-04-12T14:30:29Z</time>
      </trkpt>
      <trkpt lat="45.46267" lon="5.99021">
        <ele>285.9</ele>
        <time>2014-04-12T14:30:33Z</time>
      </trkpt>
      <trkpt lat="45.46284" lon="5.99035">
        <ele>284.51</ele>
        <time>2014-04-12T14:30:36Z</time>
      </trkpt>
      <trkpt lat="45.46308" lon="5.99044">
        <ele>286.82</ele>
        <time>2014-04-12T14:30:39Z</time>
      </trkpt>
      <trkpt lat="45.46328" lon="5.99046">
        <ele>289.96</ele>
        <time>2014-04-12T14:30:43Z</time>
      </trkpt>
      <trkpt lat="45.46347" lon="5.99043">
        <ele>287.13</ele>
        <time>2014-04-12T14:30:47Z</time>
      </trkpt>
      <trkpt lat="45.46365" lon="5.99038">
        <ele>281.83</ele>
        <time>2014-04-12T14:30:51Z</time>
      </trkpt>
      <trkpt lat="45.46383" lon="5.99032">
        <ele>279.86</ele>
        <time>2014-04-12T14:30:56Z</time>
      </trkpt>
      <trkpt lat="45.46396" lon="5.99009">
        <ele>280.5</ele>
        <time>2014-04-12T14:31:01Z</time>
      </trkpt>
      <trkpt lat="45.46394" lon="5.9898">
        <ele>284.94</ele>
        <time>2014-04-12T14:31:05Z</time>
      </trkpt>
      <trkpt lat="45.46391" lon="5.98951">
        <ele>284.39</ele>
        <time>2014-04-12T14:31:10Z</time>
      </trkpt>
      <trkpt lat="45.46388" lon="5.98922">
        <ele>282.91</ele>
        <time>2014-04-12T14:31:15Z</time>
      </trkpt>
      <trkpt lat="45.46386" lon="5.98894">
        <ele>285.92</ele>
        <time>2014-04-12T14:31:29Z</time>
      </trkpt>
      <trkpt lat="45.46384" lon="5.98868">
        <ele>278.27</ele>
        <time>2014-04-12T14:31:36Z</time>
      </trkpt>
      <trkpt lat="45.46382" lon="5.98842">
        <ele>279.13</ele>
        <time>2014-04-12T14:31:42Z</time>
      </trkpt>
      <trkpt lat="45.4638" lon="5.98813">
        <ele>278.61</ele>
        <time>2014-04-12T14:31:47Z</time>
      </trkpt>
      <trkpt lat="45.46376" lon="5.98787">
        <ele>282.16</ele>
        <time>2014-04-12T14:31:53Z</time>
      </trkpt>
      <trkpt lat="45.4637" lon="5.98757">
        <ele>287.15</ele>
        <time>2014-04-12T14:32:00Z</time>
      </trkpt>
      <trkpt lat="45.46364" lon="5.9873">
        <ele>287.7</ele>
        <time>2014-04-12T14:32:06Z</time>
      </trkpt>
      <trkpt lat="45.46359" lon="5.98706">
        <ele>288.97</ele>
        <time>2014-04-12T14:32:13Z</time>
      </trkpt>
      <trkpt lat="45.46355" lon="5.9868">
        <ele>292.69</ele>
        <time>2014-04-12T14:32:22Z</time>
      </trkpt>
      <trkpt lat="45.46374" lon="5.98669">
        <ele>285.29</ele>
        <time>2014-04-12T14:32:30Z</time>
      </trkpt>
      <trkpt lat="45.46393" lon="5.98666">
        <ele>285.81</ele>
        <time>2014-04-12T14:32:34Z</time>
      </trkpt>
      <trkpt lat="45.46416" lon="5.98661">
        <ele>286.6</ele>
        <time>2014-04-12T14:32:38Z</time>
      </trkpt>
      <trkpt lat="45.46435" lon="5.98658">
        <ele>284.14</ele>
        <time>2014-04-12T14:32:42Z</time>
      </trkpt>
      <trkpt lat="45.46454" lon="5.98652">
        <ele>282.91</ele>
        <time>2014-04-12T14:32:46Z</time>
      </trkpt>
      <trkpt lat="45.46473" lon="5.98647">
        <ele>284.4</ele>
        <time>2014-04-12T14:32:50Z</time>
      </trkpt>
      <trkpt lat="45.46491" lon="5.98639">
        <ele>284</ele>
        <time>2014-04-12T14:32:54Z</time>
      </trkpt>
      <trkpt lat="45.46511" lon="5.98629">
        <ele>285.02</ele>
        <time>2014-04-12T14:32:58Z</time>
      </trkpt>
      <trkpt lat="45.46529" lon="5.98622">
        <ele>285.36</ele>
        <time>2014-04-12T14:33:02Z</time>
      </trkpt>
      <trkpt lat="45.46529" lon="5.98596">
        <ele>284.53</ele>
        <time>2014-04-12T14:33:13Z</time>
      </trkpt>
      <trkpt lat="45.46521" lon="5.98572">
        <ele>282.74</ele>
        <time>2014-04-12T14:33:23Z</time>
      </trkpt>
      <trkpt lat="45.46515" lon="5.98546">
        <ele>276.05</ele>
        <time>2014-04-12T14:33:35Z</time>
      </trkpt>
      <trkpt lat="45.46509" lon="5.98521">
        <ele>281.6</ele>
        <time>2014-04-12T14:33:44Z</time>
      </trkpt>
      <trkpt lat="45.46492" lon="5.98509">
        <ele>289.03</ele>
        <time>2014-04-12T14:33:53Z</time>
      </trkpt>
      <trkpt lat="45.46477" lon="5.98525">
        <ele>290.94</ele>
        <time>2014-04-12T14:34:04Z</time>
      </trkpt>
      <trkpt lat="45.46471" lon="5.98552">
        <ele>294.37</ele>
        <time>2014-04-12T14:34:15Z</time>
      </trkpt>
      <trkpt lat="45.46466" lon="5.98587">
        <ele>298.32</ele>
        <time>2014-04-12T14:34:30Z</time>
      </trkpt>
      <trkpt lat="45.46447" lon="5.98593">
        <ele>300.29</ele>
        <time>2014-04-12T14:34:42Z</time>
      </trkpt>
      <trkpt lat="45.46437" lon="5.98571">
        <ele>299.22</ele>
        <time>2014-04-12T14:34:54Z</time>
      </trkpt>
      <trkpt lat="45.46437" lon="5.98544">
        <ele>295.62</ele>
        <time>2014-04-12T14:35:07Z</time>
      </trkpt>
      <trkpt lat="45.46434" lon="5.98517">
        <ele>300.87</ele>
        <time>2014-04-12T14:35:17Z</time>
      </trkpt>
      <trkpt lat="45.46422" lon="5.98494">
        <ele>311.54</ele>
        <time>2014-04-12T14:35:28Z</time>
      </trkpt>
      <trkpt lat="45.46411" lon="5.98474">
        <ele>312.75</ele>
        <time>2014-04-12T14:35:40Z</time>
      </trkpt>
      <trkpt lat="45.46396" lon="5.98457">
        <ele>321.98</ele>
        <time>2014-04-12T14:35:52Z</time>
      </trkpt>
      <trkpt lat="45.4638" lon="5.98445">
        <ele>320.49</ele>
        <time>2014-04-12T14:36:04Z</time>
      </trkpt>
      <trkpt lat="45.46363" lon="5.98433">
        <ele>323.45</ele>
        <time>2014-04-12T14:36:16Z</time>
      </trkpt>
      <trkpt lat="45.46345" lon="5.98417">
        <ele>337.67</ele>
        <time>2014-04-12T14:36:28Z</time>
      </trkpt>
      <trkpt lat="45.46329" lon="5.98404">
        <ele>333.63</ele>
        <time>2014-04-12T14:36:38Z</time>
      </trkpt>
      <trkpt lat="45.46315" lon="5.98382">
        <ele>331.25</ele>
        <time>2014-04-12T14:36:52Z</time>
      </trkpt>
      <trkpt lat="45.46306" lon="5.98358">
        <ele>335.88</ele>
        <time>2014-04-12T14:36:58Z</time>
      </trkpt>
      <trkpt lat="45.46304" lon="5.98331">
        <ele>345.83</ele>
        <time>2014-04-12T14:37:13Z</time>
      </trkpt>
      <trkpt lat="45.46301" lon="5.98303">
        <ele>339.57</ele>
        <time>2014-04-12T14:37:24Z</time>
      </trkpt>
      <trkpt lat="45.46291" lon="5.98275">
        <ele>335.39</ele>
        <time>2014-04-12T14:37:32Z</time>
      </trkpt>
      <trkpt lat="45.4628" lon="5.98253">
        <ele>342.55</ele>
        <time>2014-04-12T14:37:40Z</time>
      </trkpt>
      <trkpt lat="45.46272" lon="5.9823">
        <ele>341.92</ele>
        <time>2014-04-12T14:37:53Z</time>
      </trkpt>
      <trkpt lat="45.46274" lon="5.98203">
        <ele>340.46</ele>
        <time>2014-04-12T14:38:05Z</time>
      </trkpt>
      <trkpt lat="45.46265" lon="5.9818">
        <ele>340.63</ele>
        <time>2014-04-12T14:38:14Z</time>
      </trkpt>
      <trkpt lat="45.46252" lon="5.98209">
        <ele>329.23</ele>
        <time>2014-04-12T14:38:31Z</time>
      </trkpt>
      <trkpt lat="45.46257" lon="5.98234">
        <ele>342.97</ele>
        <time>2014-04-12T14:38:46Z</time>
      </trkpt>
      <trkpt lat="45.46257" lon="5.98261">
        <ele>348.74</ele>
        <time>2014-04-12T14:38:54Z</time>
      </trkpt>
      <trkpt lat="45.46255" lon="5.98294">
        <ele>343.71</ele>
        <time>2014-04-12T14:39:08Z</time>
      </trkpt>
      <trkpt lat="45.46251" lon="5.98323">
        <ele>370.57</ele>
        <time>2014-04-12T14:39:25Z</time>
      </trkpt>
      <trkpt lat="45.46253" lon="5.98349">
        <ele>368.46</ele>
        <time>2014-04-12T14:39:37Z</time>
      </trkpt>
      <trkpt lat="45.46247" lon="5.98374">
        <ele>365.14</ele>
        <time>2014-04-12T14:39:50Z</time>
      </trkpt>
      <trkpt lat="45.46229" lon="5.98388">
        <ele>354.91</ele>
        <time>2014-04-12T14:40:01Z</time>
      </trkpt>
      <trkpt lat="45.46209" lon="5.98394">
        <ele>360.34</ele>
        <time>2014-04-12T14:40:12Z</time>
      </trkpt>
      <trkpt lat="45.4619" lon="5.98397">
        <ele>363.87</ele>
        <time>2014-04-12T14:40:29Z</time>
      </trkpt>
      <trkpt lat="45.46174" lon="5.98409">
        <ele>371.97</ele>
        <time>2014-04-12T14:40:43Z</time>
      </trkpt>
      <trkpt lat="45.46162" lon="5.98432">
        <ele>371.57</ele>
        <time>2014-04-12T14:40:58Z</time>
      </trkpt>
      <trkpt lat="45.46147" lon="5.98446">
        <ele>374.24</ele>
        <time>2014-04-12T14:41:09Z</time>
      </trkpt>
      <trkpt lat="45.4613" lon="5.98458">
        <ele>369.95</ele>
        <time>2014-04-12T14:41:21Z</time>
      </trkpt>
      <trkpt lat="45.46115" lon="5.98475">
        <ele>386.94</ele>
        <time>2014-04-12T14:41:34Z</time>
      </trkpt>
      <trkpt lat="45.46097" lon="5.98482">
        <ele>382.91</ele>
        <time>2014-04-12T14:41:48Z</time>
      </trkpt>
      <trkpt lat="45.46079" lon="5.9848">
        <ele>382.92</ele>
        <time>2014-04-12T14:42:03Z</time>
      </trkpt>
      <trkpt lat="45.46061" lon="5.98486">
        <ele>383.73</ele>
        <time>2014-04-12T14:42:20Z</time>
      </trkpt>
      <trkpt lat="45.46042" lon="5.98494">
        <ele>381.79</ele>
        <time>2014-04-12T14:42:34Z</time>
      </trkpt>
      <trkpt lat="45.46024" lon="5.98494">
        <ele>393.7</ele>
        <time>2014-04-12T14:42:47Z</time>
      </trkpt>
      <trkpt lat="45.46012" lon="5.98473">
        <ele>390.15</ele>
        <time>2014-04-12T14:42:59Z</time>
      </trkpt>
      <trkpt lat="45.45997" lon="5.98457">
        <ele>406.8</ele>
        <time>2014-04-12T14:43:17Z</time>
      </trkpt>
      <trkpt lat="45.45986" lon="5.98436">
        <ele>403.61</ele>
        <time>2014-04-12T14:43:34Z</time>
      </trkpt>
      <trkpt lat="45.45974" lon="5.98412">
        <ele>409.04</ele>
        <time>2014-04-12T14:43:41Z</time>
      </trkpt>
      <trkpt lat="45.45966" lon="5.98386">
        <ele>396.69</ele>
        <time>2014-04-12T14:44:01Z</time>
      </trkpt>
      <trkpt lat="45.45967" lon="5.98357">
        <ele>407.8</ele>
        <time>2014-04-12T14:44:15Z</time>
      </trkpt>
      <trkpt lat="45.45977" lon="5.98334">
        <ele>413.29</ele>
        <time>2014-04-12T14:44:28Z</time>
      </trkpt>
      <trkpt lat="45.45988" lon="5.98313">
        <ele>416.72</ele>
        <time>2014-04-12T14:44:36Z</time>
      </trkpt>
      <trkpt lat="45.45999" lon="5.98293">
        <ele>408.23</ele>
        <time>2014-04-12T14:44:48Z</time>
      </trkpt>
      <trkpt lat="45.46009" lon="5.98271">
        <ele>415.77</ele>
        <time>2014-04-12T14:45:02Z</time>
      </trkpt>
      <trkpt lat="45.46019" lon="5.98246">
        <ele>423.75</ele>
        <time>2014-04-12T14:45:12Z</time>
      </trkpt>
      <trkpt lat="45.46033" lon="5.98224">
        <ele>429.81</ele>
        <time>2014-04-12T14:45:20Z</time>
      </trkpt>
      <trkpt lat="45.46033" lon="5.98198">
        <ele>433.55</ele>
        <time>2014-04-12T14:45:30Z</time>
      </trkpt>
      <trkpt lat="45.46014" lon="5.98196">
        <ele>426</ele>
        <time>2014-04-12T14:45:37Z</time>
      </trkpt>
      <trkpt lat="45.45997" lon="5.98209">
        <ele>418.29</ele>
        <time>2014-04-12T14:45:48Z</time>
      </trkpt>
      <trkpt lat="45.4598" lon="5.98223">
        <ele>418.7</ele>
        <time>2014-04-12T14:45:57Z</time>
      </trkpt>
      <trkpt lat="45.45964" lon="5.98234">
        <ele>420.8</ele>
        <time>2014-04-12T14:46:07Z</time>
      </trkpt>
      <trkpt lat="45.45945" lon="5.98242">
        <ele>414.86</ele>
        <time>2014-04-12T14:46:17Z</time>
      </trkpt>
      <trkpt lat="45.45928" lon="5.9825">
        <ele>423.96</ele>
        <time>2014-04-12T14:46:30Z</time>
      </trkpt>
      <trkpt lat="45.45927" lon="5.98224">
        <ele>436.72</ele>
        <time>2014-04-12T14:46:46Z</time>
      </trkpt>
      <trkpt lat="45.45937" lon="5.98202">
        <ele>439.6</ele>
        <time>2014-04-12T14:47:00Z</time>
      </trkpt>
      <trkpt lat="45.45947" lon="5.9818">
        <ele>436.9</ele>
        <time>2014-04-12T14:47:10Z</time>
      </trkpt>
      <trkpt lat="45.4596" lon="5.98161">
        <ele>437.72</ele>
        <time>2014-04-12T14:47:29Z</time>
      </trkpt>
      <trkpt lat="45.45968" lon="5.98138">
        <ele>435.48</ele>
        <time>2014-04-12T14:47:40Z</time>
      </trkpt>
      <trkpt lat="45.45972" lon="5.98112">
        <ele>437.3</ele>
        <time>2014-04-12T14:47:52Z</time>
      </trkpt>
      <trkpt lat="45.45981" lon="5.98088">
        <ele>440.09</ele>
        <time>2014-04-12T14:48:05Z</time>
      </trkpt>
      <trkpt lat="45.45988" lon="5.98064">
        <ele>446.72</ele>
        <time>2014-04-12T14:48:16Z</time>
      </trkpt>
      <trkpt lat="45.45992" lon="5.98039">
        <ele>448.11</ele>
        <time>2014-04-12T14:48:29Z</time>
      </trkpt>
      <trkpt lat="45.45991" lon="5.98012">
        <ele>452.67</ele>
        <time>2014-04-12T14:48:42Z</time>
      </trkpt>
      <trkpt lat="45.45984" lon="5.97988">
        <ele>450.92</ele>
        <time>2014-04-12T14:48:57Z</time>
      </trkpt>
      <trkpt lat="45.45975" lon="5.97965">
        <ele>444.52</ele>
        <time>2014-04-12T14:49:11Z</time>
      </trkpt>
      <trkpt lat="45.45971" lon="5.97937">
        <ele>450.32</ele>
        <time>2014-04-12T14:49:21Z</time>
      </trkpt>
      <trkpt lat="45.45972" lon="5.97908">
        <ele>455.63</ele>
        <time>2014-04-12T14:49:33Z</time>
      </trkpt>
      <trkpt lat="45.4597" lon="5.97881">
        <ele>461.32</ele>
        <time>2014-04-12T14:49:50Z</time>
      </trkpt>
      <trkpt lat="45.45971" lon="5.97856">
        <ele>457.34</ele>
        <time>2014-04-12T14:50:04Z</time>
      </trkpt>
      <trkpt lat="45.45975" lon="5.9783">
        <ele>468.01</ele>
        <time>2014-04-12T14:50:12Z</time>
      </trkpt>
      <trkpt lat="45.45984" lon="5.97806">
        <ele>470.95</ele>
        <time>2014-04-12T14:50:20Z</time>
      </trkpt>
      <trkpt lat="45.45996" lon="5.97785">
        <ele>480.35</ele>
        <time>2014-04-12T14:50:30Z</time>
      </trkpt>
      <trkpt lat="45.46005" lon="5.97762">
        <ele>469.09</ele>
        <time>2014-04-12T14:50:46Z</time>
      </trkpt>
      <trkpt lat="45.46017" lon="5.97743">
        <ele>473.31</ele>
        <time>2014-04-12T14:50:59Z</time>
      </trkpt>
      <trkpt lat="45.4603" lon="5.97724">
        <ele>475.35</ele>
        <time>2014-04-12T14:51:07Z</time>
      </trkpt>
      <trkpt lat="45.46044" lon="5.97704">
        <ele>466.02</ele>
        <time>2014-04-12T14:51:17Z</time>
      </trkpt>
      <trkpt lat="45.4606" lon="5.97688">
        <ele>466.01</ele>
        <time>2014-04-12T14:51:30Z</time>
      </trkpt>
      <trkpt lat="45.46069" lon="5.97663">
        <ele>468.9</ele>
        <time>2014-04-12T14:51:41Z</time>
      </trkpt>
      <trkpt lat="45.4608" lon="5.97641">
        <ele>463.26</ele>
        <time>2014-04-12T14:51:51Z</time>
      </trkpt>
      <trkpt lat="45.46092" lon="5.97619">
        <ele>476.61</ele>
        <time>2014-04-12T14:52:01Z</time>
      </trkpt>
      <trkpt lat="45.46103" lon="5.97598">
        <ele>479.47</ele>
        <time>2014-04-12T14:52:09Z</time>
      </trkpt>
      <trkpt lat="45.46115" lon="5.97576">
        <ele>480.62</ele>
        <time>2014-04-12T14:52:22Z</time>
      </trkpt>
      <trkpt lat="45.46123" lon="5.97552">
        <ele>489.38</ele>
        <time>2014-04-12T14:52:33Z</time>
      </trkpt>
      <trkpt lat="45.46131" lon="5.97528">
        <ele>494.9</ele>
        <time>2014-04-12T14:52:44Z</time>
      </trkpt>
      <trkpt lat="45.46143" lon="5.97508">
        <ele>501.3</ele>
        <time>2014-04-12T14:52:56Z</time>
      </trkpt>
      <trkpt lat="45.46158" lon="5.97494">
        <ele>514.76</ele>
        <time>2014-04-12T14:53:11Z</time>
      </trkpt>
      <trkpt lat="45.46176" lon="5.97485">
        <ele>507.64</ele>
        <time>2014-04-12T14:53:31Z</time>
      </trkpt>
      <trkpt lat="45.462" lon="5.97467">
        <ele>509.17</ele>
        <time>2014-04-12T14:53:56Z</time>
      </trkpt>
      <trkpt lat="45.46219" lon="5.97462">
        <ele>521.53</ele>
        <time>2014-04-12T14:54:10Z</time>
      </trkpt>
      <trkpt lat="45.46238" lon="5.97458">
        <ele>514.72</ele>
        <time>2014-04-12T14:54:17Z</time>
      </trkpt>
      <trkpt lat="45.46256" lon="5.97452">
        <ele>510</ele>
        <time>2014-04-12T14:54:26Z</time>
      </trkpt>
      <trkpt lat="45.46272" lon="5.97436">
        <ele>505.48</ele>
        <time>2014-04-12T14:54:33Z</time>
      </trkpt>
      <trkpt lat="45.46288" lon="5.97422">
        <ele>509.71</ele>
        <time>2014-04-12T14:54:44Z</time>
      </trkpt>
      <trkpt lat="45.46306" lon="5.9741">
        <ele>508.2</ele>
        <time>2014-04-12T14:54:52Z</time>
      </trkpt>
      <trkpt lat="45.46322" lon="5.97395">
        <ele>520.74</ele>
        <time>2014-04-12T14:55:04Z</time>
      </trkpt>
      <trkpt lat="45.46335" lon="5.97378">
        <ele>525.26</ele>
        <time>2014-04-12T14:55:17Z</time>
      </trkpt>
      <trkpt lat="45.46349" lon="5.97358">
        <ele>522.97</ele>
        <time>2014-04-12T14:55:28Z</time>
      </trkpt>
      <trkpt lat="45.46364" lon="5.97341">
        <ele>516.84</ele>
        <time>2014-04-12T14:55:37Z</time>
      </trkpt>
      <trkpt lat="45.46377" lon="5.9732">
        <ele>511.35</ele>
        <time>2014-04-12T14:55:47Z</time>
      </trkpt>
      <trkpt lat="45.46388" lon="5.97298">
        <ele>514.38</ele>
        <time>2014-04-12T14:55:58Z</time>
      </trkpt>
      <trkpt lat="45.46397" lon="5.97276">
        <ele>514.64</ele>
        <time>2014-04-12T14:56:10Z</time>
      </trkpt>
      <trkpt lat="45.46407" lon="5.97254">
        <ele>517.45</ele>
        <time>2014-04-12T14:56:20Z</time>
      </trkpt>
      <trkpt lat="45.46417" lon="5.97231">
        <ele>517.78</ele>
        <time>2014-04-12T14:56:31Z</time>
      </trkpt>
      <trkpt lat="45.46431" lon="5.97214">
        <ele>518.78</ele>
        <time>2014-04-12T14:56:42Z</time>
      </trkpt>
      <trkpt lat="45.46448" lon="5.97223">
        <ele>516.16</ele>
        <time>2014-04-12T14:56:54Z</time>
      </trkpt>
      <trkpt lat="45.46466" lon="5.97232">
        <ele>518.16</ele>
        <time>2014-04-12T14:57:02Z</time>
      </trkpt>
      <trkpt lat="45.46484" lon="5.9724">
        <ele>521.35</ele>
        <time>2014-04-12T14:57:11Z</time>
      </trkpt>
      <trkpt lat="45.46502" lon="5.97249">
        <ele>523.18</ele>
        <time>2014-04-12T14:57:20Z</time>
      </trkpt>
      <trkpt lat="45.4652" lon="5.97257">
        <ele>521.95</ele>
        <time>2014-04-12T14:57:29Z</time>
      </trkpt>
      <trkpt lat="45.46538" lon="5.97265">
        <ele>526.87</ele>
        <time>2014-04-12T14:57:41Z</time>
      </trkpt>
      <trkpt lat="45.46557" lon="5.97267">
        <ele>523.94</ele>
        <time>2014-04-12T15:09:10Z</time>
      </trkpt>
      <trkpt lat="45.46575" lon="5.97273">
        <ele>523.3</ele>
        <time>2014-04-12T15:09:20Z</time>
      </trkpt>
      <trkpt lat="45.46594" lon="5.97267">
        <ele>521.22</ele>
        <time>2014-04-12T15:09:30Z</time>
      </trkpt>
      <trkpt lat="45.46615" lon="5.9727">
        <ele>522.53</ele>
        <time>2014-04-12T15:09:35Z</time>
      </trkpt>
      <trkpt lat="45.46633" lon="5.97269">
        <ele>520.16</ele>
        <time>2014-04-12T15:09:42Z</time>
      </trkpt>
      <trkpt lat="45.46644" lon="5.97248">
        <ele>524.53</ele>
        <time>2014-04-12T15:09:51Z</time>
      </trkpt>
      <trkpt lat="45.46643" lon="5.97219">
        <ele>525.62</ele>
        <time>2014-04-12T15:09:59Z</time>
      </trkpt>
      <trkpt lat="45.46643" lon="5.97191">
        <ele>525.27</ele>
        <time>2014-04-12T15:10:07Z</time>
      </trkpt>
      <trkpt lat="45.46642" lon="5.97164">
        <ele>528.38</ele>
        <time>2014-04-12T15:10:16Z</time>
      </trkpt>
      <trkpt lat="45.46641" lon="5.97137">
        <ele>530.67</ele>
        <time>2014-04-12T15:10:25Z</time>
      </trkpt>
      <trkpt lat="45.46639" lon="5.97111">
        <ele>534.06</ele>
        <time>2014-04-12T15:10:34Z</time>
      </trkpt>
      <trkpt lat="45.46637" lon="5.97084">
        <ele>536.39</ele>
        <time>2014-04-12T15:10:44Z</time>
      </trkpt>
      <trkpt lat="45.4662" lon="5.97072">
        <ele>532.37</ele>
        <time>2014-04-12T15:11:01Z</time>
      </trkpt>
      <trkpt lat="45.46602" lon="5.97068">
        <ele>534.47</ele>
        <time>2014-04-12T15:11:16Z</time>
      </trkpt>
      <trkpt lat="45.46584" lon="5.97065">
        <ele>539.21</ele>
        <time>2014-04-12T15:11:30Z</time>
      </trkpt>
      <trkpt lat="45.46566" lon="5.97057">
        <ele>541.39</ele>
        <time>2014-04-12T15:11:46Z</time>
      </trkpt>
      <trkpt lat="45.46551" lon="5.97042">
        <ele>544.34</ele>
        <time>2014-04-12T15:12:03Z</time>
      </trkpt>
      <trkpt lat="45.46537" lon="5.97024">
        <ele>548.42</ele>
        <time>2014-04-12T15:12:17Z</time>
      </trkpt>
      <trkpt lat="45.46534" lon="5.96998">
        <ele>546.93</ele>
        <time>2014-04-12T15:12:30Z</time>
      </trkpt>
      <trkpt lat="45.46548" lon="5.9698">
        <ele>547.7</ele>
        <time>2014-04-12T15:12:45Z</time>
      </trkpt>
      <trkpt lat="45.46564" lon="5.96966">
        <ele>547.79</ele>
        <time>2014-04-12T15:13:00Z</time>
      </trkpt>
      <trkpt lat="45.4658" lon="5.9695">
        <ele>553.36</ele>
        <time>2014-04-12T15:13:16Z</time>
      </trkpt>
      <trkpt lat="45.46594" lon="5.96933">
        <ele>551.65</ele>
        <time>2014-04-12T15:13:29Z</time>
      </trkpt>
      <trkpt lat="45.46607" lon="5.96915">
        <ele>552.08</ele>
        <time>2014-04-12T15:13:43Z</time>
      </trkpt>
      <trkpt lat="45.46611" lon="5.96889">
        <ele>555.15</ele>
        <time>2014-04-12T15:13:58Z</time>
      </trkpt>
      <trkpt lat="45.46611" lon="5.96863">
        <ele>562.48</ele>
        <time>2014-04-12T15:14:11Z</time>
      </trkpt>
      <trkpt lat="45.46607" lon="5.96837">
        <ele>563.59</ele>
        <time>2014-04-12T15:14:24Z</time>
      </trkpt>
      <trkpt lat="45.46601" lon="5.96813">
        <ele>564.51</ele>
        <time>2014-04-12T15:14:38Z</time>
      </trkpt>
      <trkpt lat="45.46604" lon="5.96786">
        <ele>566.52</ele>
        <time>2014-04-12T15:14:54Z</time>
      </trkpt>
      <trkpt lat="45.46618" lon="5.96769">
        <ele>574.67</ele>
        <time>2014-04-12T15:15:08Z</time>
      </trkpt>
      <trkpt lat="45.46636" lon="5.9676">
        <ele>576.05</ele>
        <time>2014-04-12T15:15:22Z</time>
      </trkpt>
      <trkpt lat="45.46652" lon="5.9675">
        <ele>581.31</ele>
        <time>2014-04-12T15:15:36Z</time>
      </trkpt>
      <trkpt lat="45.4667" lon="5.96744">
        <ele>581.18</ele>
        <time>2014-04-12T15:15:49Z</time>
      </trkpt>
      <trkpt lat="45.46689" lon="5.96742">
        <ele>580.94</ele>
        <time>2014-04-12T15:16:03Z</time>
      </trkpt>
      <trkpt lat="45.46708" lon="5.96745">
        <ele>584.78</ele>
        <time>2014-04-12T15:16:17Z</time>
      </trkpt>
      <trkpt lat="45.46727" lon="5.96749">
        <ele>591.77</ele>
        <time>2014-04-12T15:16:29Z</time>
      </trkpt>
      <trkpt lat="45.46745" lon="5.96749">
        <ele>595.28</ele>
        <time>2014-04-12T15:16:42Z</time>
      </trkpt>
      <trkpt lat="45.46763" lon="5.96738">
        <ele>591.46</ele>
        <time>2014-04-12T15:16:53Z</time>
      </trkpt>
      <trkpt lat="45.46777" lon="5.96719">
        <ele>580.08</ele>
        <time>2014-04-12T15:17:06Z</time>
      </trkpt>
      <trkpt lat="45.46787" lon="5.96696">
        <ele>583.7</ele>
        <time>2014-04-12T15:17:22Z</time>
      </trkpt>
      <trkpt lat="45.46795" lon="5.96672">
        <ele>582.57</ele>
        <time>2014-04-12T15:17:35Z</time>
      </trkpt>
      <trkpt lat="45.46802" lon="5.96649">
        <ele>582.54</ele>
        <time>2014-04-12T15:17:45Z</time>
      </trkpt>
      <trkpt lat="45.468" lon="5.96622">
        <ele>587.56</ele>
        <time>2014-04-12T15:17:54Z</time>
      </trkpt>
      <trkpt lat="45.46782" lon="5.96619">
        <ele>595.59</ele>
        <time>2014-04-12T15:18:02Z</time>
      </trkpt>
      <trkpt lat="45.46764" lon="5.96626">
        <ele>598.26</ele>
        <time>2014-04-12T15:18:11Z</time>
      </trkpt>
      <trkpt lat="45.46747" lon="5.96636">
        <ele>598.91</ele>
        <time>2014-04-12T15:18:21Z</time>
      </trkpt>
      <trkpt lat="45.46729" lon="5.96644">
        <ele>599.97</ele>
        <time>2014-04-12T15:18:30Z</time>
      </trkpt>
      <trkpt lat="45.46711" lon="5.96648">
        <ele>598.35</ele>
        <time>2014-04-12T15:18:39Z</time>
      </trkpt>
      <trkpt lat="45.46693" lon="5.96652">
        <ele>599.32</ele>
        <time>2014-04-12T15:18:49Z</time>
      </trkpt>
      <trkpt lat="45.46673" lon="5.96655">
        <ele>601.7</ele>
        <time>2014-04-12T15:18:59Z</time>
      </trkpt>
      <trkpt lat="45.46654" lon="5.96651">
        <ele>601.8</ele>
        <time>2014-04-12T15:19:08Z</time>
      </trkpt>
      <trkpt lat="45.46636" lon="5.96647">
        <ele>601.8</ele>
        <time>2014-04-12T15:19:17Z</time>
      </trkpt>
      <trkpt lat="45.46617" lon="5.96646">
        <ele>596</ele>
        <time>2014-04-12T15:19:26Z</time>
      </trkpt>
      <trkpt lat="45.46599" lon="5.96646">
        <ele>606.65</ele>
        <time>2014-04-12T15:19:35Z</time>
      </trkpt>
      <trkpt lat="45.4658" lon="5.96646">
        <ele>607.25</ele>
        <time>2014-04-12T15:19:46Z</time>
      </trkpt>
      <trkpt lat="45.46562" lon="5.96641">
        <ele>605.79</ele>
        <time>2014-04-12T15:19:56Z</time>
      </trkpt>
      <trkpt lat="45.46543" lon="5.96639">
        <ele>602.16</ele>
        <time>2014-04-12T15:20:06Z</time>
      </trkpt>
      <trkpt lat="45.46526" lon="5.96648">
        <ele>614.3</ele>
        <time>2014-04-12T15:20:18Z</time>
      </trkpt>
      <trkpt lat="45.46506" lon="5.9665">
        <ele>611.99</ele>
        <time>2014-04-12T15:20:30Z</time>
      </trkpt>
      <trkpt lat="45.46487" lon="5.96647">
        <ele>612.54</ele>
        <time>2014-04-12T15:20:46Z</time>
      </trkpt>
      <trkpt lat="45.46469" lon="5.96642">
        <ele>616.94</ele>
        <time>2014-04-12T15:21:01Z</time>
      </trkpt>
      <trkpt lat="45.4645" lon="5.96639">
        <ele>621.08</ele>
        <time>2014-04-12T15:21:12Z</time>
      </trkpt>
      <trkpt lat="45.46432" lon="5.9664">
        <ele>624.9</ele>
        <time>2014-04-12T15:21:26Z</time>
      </trkpt>
      <trkpt lat="45.46415" lon="5.96636">
        <ele>626.39</ele>
        <time>2014-04-12T15:21:46Z</time>
      </trkpt>
      <trkpt lat="45.46396" lon="5.96636">
        <ele>628.91</ele>
        <time>2014-04-12T15:22:01Z</time>
      </trkpt>
      <trkpt lat="45.46378" lon="5.96635">
        <ele>630.61</ele>
        <time>2014-04-12T15:22:14Z</time>
      </trkpt>
      <trkpt lat="45.46359" lon="5.96638">
        <ele>631.69</ele>
        <time>2014-04-12T15:22:28Z</time>
      </trkpt>
      <trkpt lat="45.4634" lon="5.96639">
        <ele>634.09</ele>
        <time>2014-04-12T15:22:42Z</time>
      </trkpt>
      <trkpt lat="45.46322" lon="5.96643">
        <ele>641.96</ele>
        <time>2014-04-12T15:22:55Z</time>
      </trkpt>
      <trkpt lat="45.46303" lon="5.96641">
        <ele>643.26</ele>
        <time>2014-04-12T15:23:08Z</time>
      </trkpt>
      <trkpt lat="45.46285" lon="5.96633">
        <ele>641.74</ele>
        <time>2014-04-12T15:23:21Z</time>
      </trkpt>
      <trkpt lat="45.46267" lon="5.96624">
        <ele>636.28</ele>
        <time>2014-04-12T15:23:34Z</time>
      </trkpt>
      <trkpt lat="45.46249" lon="5.96622">
        <ele>640.61</ele>
        <time>2014-04-12T15:23:46Z</time>
      </trkpt>
      <trkpt lat="45.46231" lon="5.96615">
        <ele>643.72</ele>
        <time>2014-04-12T15:23:58Z</time>
      </trkpt>
      <trkpt lat="45.46213" lon="5.96613">
        <ele>646.4</ele>
        <time>2014-04-12T15:24:12Z</time>
      </trkpt>
      <trkpt lat="45.46195" lon="5.96609">
        <ele>643.34</ele>
        <time>2014-04-12T15:24:26Z</time>
      </trkpt>
      <trkpt lat="45.46177" lon="5.9661">
        <ele>643.8</ele>
        <time>2014-04-12T15:24:39Z</time>
      </trkpt>
      <trkpt lat="45.4616" lon="5.96622">
        <ele>647.44</ele>
        <time>2014-04-12T15:24:53Z</time>
      </trkpt>
      <trkpt lat="45.46144" lon="5.96636">
        <ele>651.71</ele>
        <time>2014-04-12T15:25:05Z</time>
      </trkpt>
      <trkpt lat="45.46128" lon="5.96651">
        <ele>644.88</ele>
        <time>2014-04-12T15:25:16Z</time>
      </trkpt>
      <trkpt lat="45.46112" lon="5.96669">
        <ele>659.34</ele>
        <time>2014-04-12T15:25:32Z</time>
      </trkpt>
      <trkpt lat="45.46095" lon="5.9668">
        <ele>659.03</ele>
        <time>2014-04-12T15:25:42Z</time>
      </trkpt>
      <trkpt lat="45.46077" lon="5.96689">
        <ele>666.34</ele>
        <time>2014-04-12T15:25:53Z</time>
      </trkpt>
      <trkpt lat="45.46059" lon="5.96697">
        <ele>661.29</ele>
        <time>2014-04-12T15:26:05Z</time>
      </trkpt>
      <trkpt lat="45.46043" lon="5.96709">
        <ele>669.43</ele>
        <time>2014-04-12T15:26:19Z</time>
      </trkpt>
      <trkpt lat="45.46027" lon="5.96722">
        <ele>673.01</ele>
        <time>2014-04-12T15:26:32Z</time>
      </trkpt>
      <trkpt lat="45.46013" lon="5.96739">
        <ele>676.29</ele>
        <time>2014-04-12T15:26:47Z</time>
      </trkpt>
      <trkpt lat="45.45993" lon="5.96745">
        <ele>681.74</ele>
        <time>2014-04-12T15:26:56Z</time>
      </trkpt>
      <trkpt lat="45.45974" lon="5.96749">
        <ele>676.97</ele>
        <time>2014-04-12T15:27:10Z</time>
      </trkpt>
      <trkpt lat="45.45956" lon="5.96748">
        <ele>668.86</ele>
        <time>2014-04-12T15:27:24Z</time>
      </trkpt>
      <trkpt lat="45.45938" lon="5.96742">
        <ele>683.42</ele>
        <time>2014-04-12T15:27:38Z</time>
      </trkpt>
      <trkpt lat="45.4592" lon="5.96734">
        <ele>684.44</ele>
        <time>2014-04-12T15:27:52Z</time>
      </trkpt>
      <trkpt lat="45.45907" lon="5.96716">
        <ele>695.03</ele>
        <time>2014-04-12T15:28:04Z</time>
      </trkpt>
      <trkpt lat="45.459" lon="5.96692">
        <ele>706.41</ele>
        <time>2014-04-12T15:28:16Z</time>
      </trkpt>
      <trkpt lat="45.459" lon="5.96662">
        <ele>703.27</ele>
        <time>2014-04-12T15:28:23Z</time>
      </trkpt>
      <trkpt lat="45.4589" lon="5.9664">
        <ele>696.57</ele>
        <time>2014-04-12T15:28:32Z</time>
      </trkpt>
      <trkpt lat="45.4588" lon="5.96615">
        <ele>695.17</ele>
        <time>2014-04-12T15:28:43Z</time>
      </trkpt>
      <trkpt lat="45.45869" lon="5.96594">
        <ele>693.6</ele>
        <time>2014-04-12T15:28:57Z</time>
      </trkpt>
      <trkpt lat="45.45857" lon="5.96574">
        <ele>693.43</ele>
        <time>2014-04-12T15:29:11Z</time>
      </trkpt>
      <trkpt lat="45.4585" lon="5.9655">
        <ele>700.57</ele>
        <time>2014-04-12T15:29:19Z</time>
      </trkpt>
      <trkpt lat="45.45843" lon="5.96526">
        <ele>700.45</ele>
        <time>2014-04-12T15:29:29Z</time>
      </trkpt>
      <trkpt lat="45.45837" lon="5.96502">
        <ele>696.84</ele>
        <time>2014-04-12T15:29:40Z</time>
      </trkpt>
      <trkpt lat="45.45833" lon="5.96476">
        <ele>694.56</ele>
        <time>2014-04-12T15:29:53Z</time>
      </trkpt>
      <trkpt lat="45.4583" lon="5.96449">
        <ele>701.59</ele>
        <time>2014-04-12T15:30:06Z</time>
      </trkpt>
      <trkpt lat="45.45834" lon="5.96424">
        <ele>702.53</ele>
        <time>2014-04-12T15:30:17Z</time>
      </trkpt>
      <trkpt lat="45.45839" lon="5.96397">
        <ele>695.47</ele>
        <time>2014-04-12T15:30:30Z</time>
      </trkpt>
      <trkpt lat="45.45842" lon="5.9637">
        <ele>697.28</ele>
        <time>2014-04-12T15:30:42Z</time>
      </trkpt>
      <trkpt lat="45.45843" lon="5.96342">
        <ele>705.12</ele>
        <time>2014-04-12T15:30:53Z</time>
      </trkpt>
      <trkpt lat="45.4584" lon="5.96315">
        <ele>707.33</ele>
        <time>2014-04-12T15:31:03Z</time>
      </trkpt>
      <trkpt lat="45.45834" lon="5.9629">
        <ele>703.07</ele>
        <time>2014-04-12T15:31:12Z</time>
      </trkpt>
      <trkpt lat="45.45827" lon="5.96266">
        <ele>702.58</ele>
        <time>2014-04-12T15:31:21Z</time>
      </trkpt>
      <trkpt lat="45.45819" lon="5.96241">
        <ele>699.71</ele>
        <time>2014-04-12T15:31:34Z</time>
      </trkpt>
      <trkpt lat="45.45811" lon="5.96215">
        <ele>701.01</ele>
        <time>2014-04-12T15:31:46Z</time>
      </trkpt>
      <trkpt lat="45.45804" lon="5.96189">
        <ele>706.3</ele>
        <time>2014-04-12T15:31:57Z</time>
      </trkpt>
      <trkpt lat="45.458" lon="5.96161">
        <ele>700.54</ele>
        <time>2014-04-12T15:32:08Z</time>
      </trkpt>
      <trkpt lat="45.45798" lon="5.96134">
        <ele>703.03</ele>
        <time>2014-04-12T15:32:16Z</time>
      </trkpt>
      <trkpt lat="45.45796" lon="5.96108">
        <ele>701.02</ele>
        <time>2014-04-12T15:32:25Z</time>
      </trkpt>
      <trkpt lat="45.45794" lon="5.96081">
        <ele>706.28</ele>
        <time>2014-04-12T15:32:35Z</time>
      </trkpt>
      <trkpt lat="45.45794" lon="5.96055">
        <ele>712.61</ele>
        <time>2014-04-12T15:32:45Z</time>
      </trkpt>
      <trkpt lat="45.45789" lon="5.9603">
        <ele>724.74</ele>
        <time>2014-04-12T15:32:55Z</time>
      </trkpt>
      <trkpt lat="45.4579" lon="5.96001">
        <ele>728.8</ele>
        <time>2014-04-12T15:33:07Z</time>
      </trkpt>
      <trkpt lat="45.45786" lon="5.95976">
        <ele>723.59</ele>
        <time>2014-04-12T15:33:17Z</time>
      </trkpt>
      <trkpt lat="45.4577" lon="5.95961">
        <ele>723.45</ele>
        <time>2014-04-12T15:33:31Z</time>
      </trkpt>
      <trkpt lat="45.45754" lon="5.95945">
        <ele>709.47</ele>
        <time>2014-04-12T15:33:43Z</time>
      </trkpt>
      <trkpt lat="45.45753" lon="5.9592">
        <ele>714.6</ele>
        <time>2014-04-12T15:33:52Z</time>
      </trkpt>
      <trkpt lat="45.45756" lon="5.95893">
        <ele>706.44</ele>
        <time>2014-04-12T15:33:59Z</time>
      </trkpt>
      <trkpt lat="45.45753" lon="5.95866">
        <ele>707.87</ele>
        <time>2014-04-12T15:34:08Z</time>
      </trkpt>
      <trkpt lat="45.45743" lon="5.95845">
        <ele>710.16</ele>
        <time>2014-04-12T15:34:20Z</time>
      </trkpt>
      <trkpt lat="45.45732" lon="5.95822">
        <ele>703.55</ele>
        <time>2014-04-12T15:34:29Z</time>
      </trkpt>
      <trkpt lat="45.45728" lon="5.95797">
        <ele>712.21</ele>
        <time>2014-04-12T15:34:39Z</time>
      </trkpt>
      <trkpt lat="45.45734" lon="5.95772">
        <ele>712.91</ele>
        <time>2014-04-12T15:34:46Z</time>
      </trkpt>
      <trkpt lat="45.45739" lon="5.95747">
        <ele>712.1</ele>
        <time>2014-04-12T15:34:55Z</time>
      </trkpt>
      <trkpt lat="45.45726" lon="5.95728">
        <ele>708.67</ele>
        <time>2014-04-12T15:35:04Z</time>
      </trkpt>
      <trkpt lat="45.45709" lon="5.95718">
        <ele>708.01</ele>
        <time>2014-04-12T15:35:11Z</time>
      </trkpt>
      <trkpt lat="45.45698" lon="5.95697">
        <ele>714.71</ele>
        <time>2014-04-12T15:35:20Z</time>
      </trkpt>
      <trkpt lat="45.45689" lon="5.95673">
        <ele>717.32</ele>
        <time>2014-04-12T15:35:29Z</time>
      </trkpt>
      <trkpt lat="45.45678" lon="5.95649">
        <ele>722.62</ele>
        <time>2014-04-12T15:35:39Z</time>
      </trkpt>
      <trkpt lat="45.45666" lon="5.95628">
        <ele>721.36</ele>
        <time>2014-04-12T15:35:51Z</time>
      </trkpt>
      <trkpt lat="45.45655" lon="5.95605">
        <ele>716.09</ele>
        <time>2014-04-12T15:36:03Z</time>
      </trkpt>
      <trkpt lat="45.45639" lon="5.95589">
        <ele>714.35</ele>
        <time>2014-04-12T15:36:11Z</time>
      </trkpt>
      <trkpt lat="45.45626" lon="5.9557">
        <ele>723.09</ele>
        <time>2014-04-12T15:36:19Z</time>
      </trkpt>
      <trkpt lat="45.45612" lon="5.95549">
        <ele>716.7</ele>
        <time>2014-04-12T15:36:32Z</time>
      </trkpt>
      <trkpt lat="45.45602" lon="5.95526">
        <ele>711.25</ele>
        <time>2014-04-12T15:36:41Z</time>
      </trkpt>
      <trkpt lat="45.45586" lon="5.95508">
        <ele>708.25</ele>
        <time>2014-04-12T15:36:49Z</time>
      </trkpt>
      <trkpt lat="45.45569" lon="5.95493">
        <ele>704.55</ele>
        <time>2014-04-12T15:36:56Z</time>
      </trkpt>
      <trkpt lat="45.4555" lon="5.95491">
        <ele>708.28</ele>
        <time>2014-04-12T15:37:06Z</time>
      </trkpt>
      <trkpt lat="45.45533" lon="5.95505">
        <ele>719.31</ele>
        <time>2014-04-12T15:37:18Z</time>
      </trkpt>
      <trkpt lat="45.45533" lon="5.95533">
        <ele>715.32</ele>
        <time>2014-04-12T15:37:25Z</time>
      </trkpt>
      <trkpt lat="45.45533" lon="5.9556">
        <ele>722.68</ele>
        <time>2014-04-12T15:37:33Z</time>
      </trkpt>
      <trkpt lat="45.45521" lon="5.95585">
        <ele>716.6</ele>
        <time>2014-04-12T15:37:42Z</time>
      </trkpt>
      <trkpt lat="45.45504" lon="5.95601">
        <ele>715.92</ele>
        <time>2014-04-12T15:37:49Z</time>
      </trkpt>
      <trkpt lat="45.45503" lon="5.95628">
        <ele>720.25</ele>
        <time>2014-04-12T15:38:01Z</time>
      </trkpt>
      <trkpt lat="45.45508" lon="5.95655">
        <ele>718.66</ele>
        <time>2014-04-12T15:38:11Z</time>
      </trkpt>
      <trkpt lat="45.45504" lon="5.95683">
        <ele>713.66</ele>
        <time>2014-04-12T15:38:20Z</time>
      </trkpt>
      <trkpt lat="45.4549" lon="5.95703">
        <ele>715.33</ele>
        <time>2014-04-12T15:38:26Z</time>
      </trkpt>
      <trkpt lat="45.45476" lon="5.95721">
        <ele>714.45</ele>
        <time>2014-04-12T15:38:33Z</time>
      </trkpt>
      <trkpt lat="45.45461" lon="5.95737">
        <ele>717.73</ele>
        <time>2014-04-12T15:38:40Z</time>
      </trkpt>
      <trkpt lat="45.45452" lon="5.9576">
        <ele>717.29</ele>
        <time>2014-04-12T15:38:46Z</time>
      </trkpt>
      <trkpt lat="45.4544" lon="5.95784">
        <ele>718.75</ele>
        <time>2014-04-12T15:38:58Z</time>
      </trkpt>
      <trkpt lat="45.4544" lon="5.95814">
        <ele>723.36</ele>
        <time>2014-04-12T15:39:03Z</time>
      </trkpt>
      <trkpt lat="45.45439" lon="5.95841">
        <ele>719.57</ele>
        <time>2014-04-12T15:39:08Z</time>
      </trkpt>
      <trkpt lat="45.45431" lon="5.95865">
        <ele>715.71</ele>
        <time>2014-04-12T15:39:15Z</time>
      </trkpt>
      <trkpt lat="45.45424" lon="5.95892">
        <ele>711.48</ele>
        <time>2014-04-12T15:39:23Z</time>
      </trkpt>
      <trkpt lat="45.45426" lon="5.95923">
        <ele>723.46</ele>
        <time>2014-04-12T15:39:37Z</time>
      </trkpt>
      <trkpt lat="45.4542" lon="5.95949">
        <ele>729.53</ele>
        <time>2014-04-12T15:39:42Z</time>
      </trkpt>
      <trkpt lat="45.45407" lon="5.95969">
        <ele>724.99</ele>
        <time>2014-04-12T15:39:48Z</time>
      </trkpt>
      <trkpt lat="45.45393" lon="5.95986">
        <ele>758.62</ele>
        <time>2014-04-12T15:39:58Z</time>
      </trkpt>
      <trkpt lat="45.45381" lon="5.96007">
        <ele>765.07</ele>
        <time>2014-04-12T15:40:01Z</time>
      </trkpt>
      <trkpt lat="45.45366" lon="5.96035">
        <ele>770.48</ele>
        <time>2014-04-12T15:40:10Z</time>
      </trkpt>
      <trkpt lat="45.45364" lon="5.96063">
        <ele>768.1</ele>
        <time>2014-04-12T15:40:13Z</time>
      </trkpt>
      <trkpt lat="45.45369" lon="5.96089">
        <ele>763.29</ele>
        <time>2014-04-12T15:40:19Z</time>
      </trkpt>
      <trkpt lat="45.45375" lon="5.96117">
        <ele>742.61</ele>
        <time>2014-04-12T15:40:33Z</time>
      </trkpt>
      <trkpt lat="45.4537" lon="5.96148">
        <ele>738.08</ele>
        <time>2014-04-12T15:40:41Z</time>
      </trkpt>
      <trkpt lat="45.4536" lon="5.96174">
        <ele>735.05</ele>
        <time>2014-04-12T15:40:47Z</time>
      </trkpt>
      <trkpt lat="45.45356" lon="5.96201">
        <ele>735.1</ele>
        <time>2014-04-12T15:40:53Z</time>
      </trkpt>
      <trkpt lat="45.45348" lon="5.96226">
        <ele>733.81</ele>
        <time>2014-04-12T15:40:59Z</time>
      </trkpt>
      <trkpt lat="45.45336" lon="5.96246">
        <ele>747.56</ele>
        <time>2014-04-12T15:41:05Z</time>
      </trkpt>
      <trkpt lat="45.45321" lon="5.96267">
        <ele>762.4</ele>
        <time>2014-04-12T15:41:12Z</time>
      </trkpt>
      <trkpt lat="45.45303" lon="5.9629">
        <ele>764</ele>
        <time>2014-04-12T15:41:16Z</time>
      </trkpt>
      <trkpt lat="45.45293" lon="5.96314">
        <ele>766.23</ele>
        <time>2014-04-12T15:41:23Z</time>
      </trkpt>
      <trkpt lat="45.45282" lon="5.9634">
        <ele>771.22</ele>
        <time>2014-04-12T15:41:28Z</time>
      </trkpt>
      <trkpt lat="45.45274" lon="5.96364">
        <ele>772.13</ele>
        <time>2014-04-12T15:41:32Z</time>
      </trkpt>
      <trkpt lat="45.45265" lon="5.96391">
        <ele>774.51</ele>
        <time>2014-04-12T15:41:37Z</time>
      </trkpt>
      <trkpt lat="45.45254" lon="5.96413">
        <ele>778.97</ele>
        <time>2014-04-12T15:41:42Z</time>
      </trkpt>
      <trkpt lat="45.45239" lon="5.96431">
        <ele>778.83</ele>
        <time>2014-04-12T15:41:47Z</time>
      </trkpt>
      <trkpt lat="45.45222" lon="5.96451">
        <ele>769.06</ele>
        <time>2014-04-12T15:41:56Z</time>
      </trkpt>
      <trkpt lat="45.45208" lon="5.9647">
        <ele>761.69</ele>
        <time>2014-04-12T15:42:03Z</time>
      </trkpt>
      <trkpt lat="45.45191" lon="5.96486">
        <ele>764.08</ele>
        <time>2014-04-12T15:42:10Z</time>
      </trkpt>
      <trkpt lat="45.45174" lon="5.96497">
        <ele>765.53</ele>
        <time>2014-04-12T15:42:17Z</time>
      </trkpt>
      <trkpt lat="45.45154" lon="5.96499">
        <ele>764.61</ele>
        <time>2014-04-12T15:42:26Z</time>
      </trkpt>
      <trkpt lat="45.45135" lon="5.96502">
        <ele>771.72</ele>
        <time>2014-04-12T15:42:34Z</time>
      </trkpt>
      <trkpt lat="45.45118" lon="5.9649">
        <ele>774.48</ele>
        <time>2014-04-12T15:42:45Z</time>
      </trkpt>
      <trkpt lat="45.45103" lon="5.96474">
        <ele>768.69</ele>
        <time>2014-04-12T15:42:54Z</time>
      </trkpt>
      <trkpt lat="45.45091" lon="5.96454">
        <ele>782.42</ele>
        <time>2014-04-12T15:43:06Z</time>
      </trkpt>
      <trkpt lat="45.45083" lon="5.96429">
        <ele>767.7</ele>
        <time>2014-04-12T15:43:22Z</time>
      </trkpt>
      <trkpt lat="45.45074" lon="5.96404">
        <ele>764.97</ele>
        <time>2014-04-12T15:43:32Z</time>
      </trkpt>
      <trkpt lat="45.45064" lon="5.96382">
        <ele>774.2</ele>
        <time>2014-04-12T15:43:42Z</time>
      </trkpt>
      <trkpt lat="45.4505" lon="5.96366">
        <ele>771.09</ele>
        <time>2014-04-12T15:43:53Z</time>
      </trkpt>
      <trkpt lat="45.45038" lon="5.96345">
        <ele>782.06</ele>
        <time>2014-04-12T15:44:05Z</time>
      </trkpt>
      <trkpt lat="45.45025" lon="5.96328">
        <ele>788.25</ele>
        <time>2014-04-12T15:44:14Z</time>
      </trkpt>
      <trkpt lat="45.45011" lon="5.96308">
        <ele>781.07</ele>
        <time>2014-04-12T15:44:26Z</time>
      </trkpt>
      <trkpt lat="45.44998" lon="5.96291">
        <ele>794.88</ele>
        <time>2014-04-12T15:44:36Z</time>
      </trkpt>
      <trkpt lat="45.4498" lon="5.96289">
        <ele>786.93</ele>
        <time>2014-04-12T15:44:51Z</time>
      </trkpt>
      <trkpt lat="45.44974" lon="5.96314">
        <ele>791.6</ele>
        <time>2014-04-12T15:45:07Z</time>
      </trkpt>
      <trkpt lat="45.44963" lon="5.96337">
        <ele>801.64</ele>
        <time>2014-04-12T15:45:17Z</time>
      </trkpt>
      <trkpt lat="45.44949" lon="5.96354">
        <ele>806.6</ele>
        <time>2014-04-12T15:45:37Z</time>
      </trkpt>
      <trkpt lat="45.44933" lon="5.96369">
        <ele>801.7</ele>
        <time>2014-04-12T15:45:46Z</time>
      </trkpt>
      <trkpt lat="45.4492" lon="5.96387">
        <ele>803.01</ele>
        <time>2014-04-12T15:45:57Z</time>
      </trkpt>
      <trkpt lat="45.44914" lon="5.96414">
        <ele>806.96</ele>
        <time>2014-04-12T15:46:07Z</time>
      </trkpt>
      <trkpt lat="45.4492" lon="5.96438">
        <ele>802.59</ele>
        <time>2014-04-12T15:46:18Z</time>
      </trkpt>
      <trkpt lat="45.4493" lon="5.96461">
        <ele>802.2</ele>
        <time>2014-04-12T15:46:28Z</time>
      </trkpt>
      <trkpt lat="45.44939" lon="5.96483">
        <ele>805.53</ele>
        <time>2014-04-12T15:46:40Z</time>
      </trkpt>
      <trkpt lat="45.44933" lon="5.96508">
        <ele>814.72</ele>
        <time>2014-04-12T15:46:52Z</time>
      </trkpt>
      <trkpt lat="45.44925" lon="5.96532">
        <ele>813.2</ele>
        <time>2014-04-12T15:47:04Z</time>
      </trkpt>
      <trkpt lat="45.44913" lon="5.96553">
        <ele>810.8</ele>
        <time>2014-04-12T15:47:17Z</time>
      </trkpt>
      <trkpt lat="45.449" lon="5.96571">
        <ele>809.29</ele>
        <time>2014-04-12T15:47:29Z</time>
      </trkpt>
      <trkpt lat="45.44885" lon="5.96587">
        <ele>810.13</ele>
        <time>2014-04-12T15:47:40Z</time>
      </trkpt>
      <trkpt lat="45.4487" lon="5.96604">
        <ele>808.43</ele>
        <time>2014-04-12T15:47:51Z</time>
      </trkpt>
      <trkpt lat="45.44855" lon="5.9662">
        <ele>818.25</ele>
        <time>2014-04-12T15:48:02Z</time>
      </trkpt>
      <trkpt lat="45.44839" lon="5.96634">
        <ele>815.58</ele>
        <time>2014-04-12T15:48:15Z</time>
      </trkpt>
      <trkpt lat="45.44824" lon="5.96649">
        <ele>821.41</ele>
        <time>2014-04-12T15:48:25Z</time>
      </trkpt>
      <trkpt lat="45.4481" lon="5.96665">
        <ele>824.68</ele>
        <time>2014-04-12T15:48:34Z</time>
      </trkpt>
      <trkpt lat="45.44792" lon="5.96674">
        <ele>822.79</ele>
        <time>2014-04-12T15:48:42Z</time>
      </trkpt>
      <trkpt lat="45.44803" lon="5.96699">
        <ele>816.2</ele>
        <time>2014-04-12T15:54:14Z</time>
      </trkpt>
      <trkpt lat="45.44799" lon="5.96728">
        <ele>807.36</ele>
        <time>2014-04-12T15:54:20Z</time>
      </trkpt>
      <trkpt lat="45.4481" lon="5.96755">
        <ele>803.55</ele>
        <time>2014-04-12T15:54:24Z</time>
      </trkpt>
      <trkpt lat="45.4483" lon="5.96763">
        <ele>796.5</ele>
        <time>2014-04-12T15:54:31Z</time>
      </trkpt>
      <trkpt lat="45.44836" lon="5.9679">
        <ele>796.64</ele>
        <time>2014-04-12T15:54:38Z</time>
      </trkpt>
      <trkpt lat="45.44827" lon="5.96814">
        <ele>792.55</ele>
        <time>2014-04-12T15:54:48Z</time>
      </trkpt>
      <trkpt lat="45.44812" lon="5.96832">
        <ele>781.31</ele>
        <time>2014-04-12T15:54:57Z</time>
      </trkpt>
      <trkpt lat="45.44794" lon="5.96845">
        <ele>772.6</ele>
        <time>2014-04-12T15:55:04Z</time>
      </trkpt>
      <trkpt lat="45.44776" lon="5.96852">
        <ele>767.18</ele>
        <time>2014-04-12T15:55:10Z</time>
      </trkpt>
      <trkpt lat="45.44758" lon="5.96863">
        <ele>765.66</ele>
        <time>2014-04-12T15:55:15Z</time>
      </trkpt>
      <trkpt lat="45.44742" lon="5.96878">
        <ele>758.18</ele>
        <time>2014-04-12T15:55:20Z</time>
      </trkpt>
      <trkpt lat="45.44726" lon="5.9689">
        <ele>755.81</ele>
        <time>2014-04-12T15:55:24Z</time>
      </trkpt>
      <trkpt lat="45.44727" lon="5.96916">
        <ele>763.56</ele>
        <time>2014-04-12T15:55:45Z</time>
      </trkpt>
      <trkpt lat="45.44743" lon="5.96935">
        <ele>760.18</ele>
        <time>2014-04-12T15:56:14Z</time>
      </trkpt>
      <trkpt lat="45.44763" lon="5.96947">
        <ele>749.04</ele>
        <time>2014-04-12T15:56:18Z</time>
      </trkpt>
      <trkpt lat="45.4478" lon="5.96953">
        <ele>741.96</ele>
        <time>2014-04-12T15:56:21Z</time>
      </trkpt>
      <trkpt lat="45.44799" lon="5.96958">
        <ele>732.25</ele>
        <time>2014-04-12T15:56:25Z</time>
      </trkpt>
      <trkpt lat="45.44817" lon="5.96963">
        <ele>724.05</ele>
        <time>2014-04-12T15:56:30Z</time>
      </trkpt>
      <trkpt lat="45.44837" lon="5.96971">
        <ele>718.71</ele>
        <time>2014-04-12T15:56:36Z</time>
      </trkpt>
      <trkpt lat="45.44854" lon="5.96977">
        <ele>709.99</ele>
        <time>2014-04-12T15:56:41Z</time>
      </trkpt>
      <trkpt lat="45.44877" lon="5.96985">
        <ele>701.46</ele>
        <time>2014-04-12T15:56:46Z</time>
      </trkpt>
      <trkpt lat="45.44896" lon="5.96993">
        <ele>695.8</ele>
        <time>2014-04-12T15:56:50Z</time>
      </trkpt>
      <trkpt lat="45.44915" lon="5.96999">
        <ele>694.55</ele>
        <time>2014-04-12T15:56:55Z</time>
      </trkpt>
      <trkpt lat="45.44932" lon="5.97012">
        <ele>691.51</ele>
        <time>2014-04-12T15:56:59Z</time>
      </trkpt>
      <trkpt lat="45.44951" lon="5.97008">
        <ele>685.97</ele>
        <time>2014-04-12T15:57:04Z</time>
      </trkpt>
      <trkpt lat="45.44967" lon="5.97019">
        <ele>680.36</ele>
        <time>2014-04-12T15:57:12Z</time>
      </trkpt>
      <trkpt lat="45.44959" lon="5.97044">
        <ele>677.4</ele>
        <time>2014-04-12T15:57:16Z</time>
      </trkpt>
      <trkpt lat="45.44968" lon="5.97071">
        <ele>670.81</ele>
        <time>2014-04-12T15:57:22Z</time>
      </trkpt>
      <trkpt lat="45.44962" lon="5.97097">
        <ele>647.12</ele>
        <time>2014-04-12T15:57:38Z</time>
      </trkpt>
      <trkpt lat="45.44978" lon="5.9711">
        <ele>637.73</ele>
        <time>2014-04-12T15:57:44Z</time>
      </trkpt>
      <trkpt lat="45.44997" lon="5.97111">
        <ele>631.43</ele>
        <time>2014-04-12T15:57:49Z</time>
      </trkpt>
      <trkpt lat="45.4501" lon="5.9713">
        <ele>629.87</ele>
        <time>2014-04-12T15:57:57Z</time>
      </trkpt>
      <trkpt lat="45.45003" lon="5.97157">
        <ele>629.7</ele>
        <time>2014-04-12T15:58:02Z</time>
      </trkpt>
      <trkpt lat="45.44988" lon="5.97173">
        <ele>624.88</ele>
        <time>2014-04-12T15:58:08Z</time>
      </trkpt>
      <trkpt lat="45.44992" lon="5.97199">
        <ele>610.68</ele>
        <time>2014-04-12T15:58:16Z</time>
      </trkpt>
      <trkpt lat="45.45012" lon="5.97211">
        <ele>598.61</ele>
        <time>2014-04-12T15:58:21Z</time>
      </trkpt>
      <trkpt lat="45.45027" lon="5.97194">
        <ele>588.34</ele>
        <time>2014-04-12T15:58:24Z</time>
      </trkpt>
      <trkpt lat="45.45041" lon="5.97176">
        <ele>580.84</ele>
        <time>2014-04-12T15:58:27Z</time>
      </trkpt>
      <trkpt lat="45.45058" lon="5.97158">
        <ele>577.33</ele>
        <time>2014-04-12T15:58:30Z</time>
      </trkpt>
      <trkpt lat="45.45073" lon="5.97144">
        <ele>572.2</ele>
        <time>2014-04-12T15:58:35Z</time>
      </trkpt>
      <trkpt lat="45.45088" lon="5.97161">
        <ele>565.04</ele>
        <time>2014-04-12T15:58:42Z</time>
      </trkpt>
      <trkpt lat="45.45101" lon="5.97181">
        <ele>563.35</ele>
        <time>2014-04-12T15:58:48Z</time>
      </trkpt>
      <trkpt lat="45.45112" lon="5.97206">
        <ele>559.93</ele>
        <time>2014-04-12T15:58:54Z</time>
      </trkpt>
      <trkpt lat="45.45129" lon="5.97221">
        <ele>550.41</ele>
        <time>2014-04-12T15:59:00Z</time>
      </trkpt>
      <trkpt lat="45.45144" lon="5.97237">
        <ele>537.92</ele>
        <time>2014-04-12T15:59:05Z</time>
      </trkpt>
      <trkpt lat="45.4515" lon="5.97266">
        <ele>536.22</ele>
        <time>2014-04-12T15:59:11Z</time>
      </trkpt>
      <trkpt lat="45.45139" lon="5.97295">
        <ele>565.05</ele>
        <time>2014-04-12T16:00:15Z</time>
      </trkpt>
      <trkpt lat="45.4513" lon="5.97317">
        <ele>557.9</ele>
        <time>2014-04-12T16:00:18Z</time>
      </trkpt>
      <trkpt lat="45.45122" lon="5.9735">
        <ele>560.96</ele>
        <time>2014-04-12T16:00:27Z</time>
      </trkpt>
      <trkpt lat="45.45124" lon="5.97376">
        <ele>556.4</ele>
        <time>2014-04-12T16:00:30Z</time>
      </trkpt>
      <trkpt lat="45.45131" lon="5.97402">
        <ele>550.83</ele>
        <time>2014-04-12T16:00:34Z</time>
      </trkpt>
      <trkpt lat="45.45112" lon="5.97428">
        <ele>533.66</ele>
        <time>2014-04-12T16:00:41Z</time>
      </trkpt>
      <trkpt lat="45.45095" lon="5.97435">
        <ele>528.57</ele>
        <time>2014-04-12T16:00:43Z</time>
      </trkpt>
      <trkpt lat="45.45065" lon="5.97439">
        <ele>521.2</ele>
        <time>2014-04-12T16:00:46Z</time>
      </trkpt>
      <trkpt lat="45.45047" lon="5.97447">
        <ele>517.64</ele>
        <time>2014-04-12T16:00:49Z</time>
      </trkpt>
      <trkpt lat="45.45028" lon="5.97453">
        <ele>514.01</ele>
        <time>2014-04-12T16:00:52Z</time>
      </trkpt>
      <trkpt lat="45.45006" lon="5.97458">
        <ele>513.5</ele>
        <time>2014-04-12T16:00:55Z</time>
      </trkpt>
      <trkpt lat="45.44984" lon="5.97464">
        <ele>508.62</ele>
        <time>2014-04-12T16:00:59Z</time>
      </trkpt>
      <trkpt lat="45.44965" lon="5.97468">
        <ele>505.36</ele>
        <time>2014-04-12T16:01:02Z</time>
      </trkpt>
      <trkpt lat="45.44949" lon="5.97482">
        <ele>499.37</ele>
        <time>2014-04-12T16:01:07Z</time>
      </trkpt>
      <trkpt lat="45.44962" lon="5.97506">
        <ele>492.21</ele>
        <time>2014-04-12T16:01:11Z</time>
      </trkpt>
      <trkpt lat="45.44978" lon="5.97528">
        <ele>486.22</ele>
        <time>2014-04-12T16:01:14Z</time>
      </trkpt>
      <trkpt lat="45.4499" lon="5.97547">
        <ele>476.72</ele>
        <time>2014-04-12T16:01:18Z</time>
      </trkpt>
      <trkpt lat="45.45011" lon="5.9756">
        <ele>471.1</ele>
        <time>2014-04-12T16:01:22Z</time>
      </trkpt>
      <trkpt lat="45.45025" lon="5.97577">
        <ele>470.14</ele>
        <time>2014-04-12T16:01:25Z</time>
      </trkpt>
      <trkpt lat="45.45038" lon="5.97597">
        <ele>469.71</ele>
        <time>2014-04-12T16:01:28Z</time>
      </trkpt>
      <trkpt lat="45.4505" lon="5.9762">
        <ele>469.62</ele>
        <time>2014-04-12T16:01:31Z</time>
      </trkpt>
      <trkpt lat="45.45062" lon="5.97643">
        <ele>466.34</ele>
        <time>2014-04-12T16:01:35Z</time>
      </trkpt>
      <trkpt lat="45.45079" lon="5.97658">
        <ele>459.85</ele>
        <time>2014-04-12T16:01:40Z</time>
      </trkpt>
      <trkpt lat="45.451" lon="5.97652">
        <ele>456.44</ele>
        <time>2014-04-12T16:01:46Z</time>
      </trkpt>
      <trkpt lat="45.45118" lon="5.97664">
        <ele>453.66</ele>
        <time>2014-04-12T16:01:50Z</time>
      </trkpt>
      <trkpt lat="45.45114" lon="5.97691">
        <ele>453.43</ele>
        <time>2014-04-12T16:01:55Z</time>
      </trkpt>
      <trkpt lat="45.45105" lon="5.97718">
        <ele>451.25</ele>
        <time>2014-04-12T16:01:59Z</time>
      </trkpt>
      <trkpt lat="45.45092" lon="5.97742">
        <ele>451.63</ele>
        <time>2014-04-12T16:02:04Z</time>
      </trkpt>
      <trkpt lat="45.45075" lon="5.97753">
        <ele>445.17</ele>
        <time>2014-04-12T16:02:08Z</time>
      </trkpt>
      <trkpt lat="45.45058" lon="5.97769">
        <ele>438.28</ele>
        <time>2014-04-12T16:02:12Z</time>
      </trkpt>
      <trkpt lat="45.45041" lon="5.97783">
        <ele>434.85</ele>
        <time>2014-04-12T16:02:15Z</time>
      </trkpt>
      <trkpt lat="45.45023" lon="5.97806">
        <ele>427.83</ele>
        <time>2014-04-12T16:02:18Z</time>
      </trkpt>
      <trkpt lat="45.45009" lon="5.97838">
        <ele>426.52</ele>
        <time>2014-04-12T16:02:21Z</time>
      </trkpt>
      <trkpt lat="45.45004" lon="5.97864">
        <ele>426.3</ele>
        <time>2014-04-12T16:02:23Z</time>
      </trkpt>
      <trkpt lat="45.44999" lon="5.9789">
        <ele>421.96</ele>
        <time>2014-04-12T16:02:26Z</time>
      </trkpt>
      <trkpt lat="45.44979" lon="5.97909">
        <ele>418.68</ele>
        <time>2014-04-12T16:02:29Z</time>
      </trkpt>
      <trkpt lat="45.44957" lon="5.97919">
        <ele>418.33</ele>
        <time>2014-04-12T16:02:31Z</time>
      </trkpt>
      <trkpt lat="45.44932" lon="5.97926">
        <ele>417.4</ele>
        <time>2014-04-12T16:02:34Z</time>
      </trkpt>
      <trkpt lat="45.44902" lon="5.97927">
        <ele>414.67</ele>
        <time>2014-04-12T16:02:36Z</time>
      </trkpt>
      <trkpt lat="45.44882" lon="5.97931">
        <ele>412.22</ele>
        <time>2014-04-12T16:02:37Z</time>
      </trkpt>
      <trkpt lat="45.44854" lon="5.97934">
        <ele>407.38</ele>
        <time>2014-04-12T16:02:39Z</time>
      </trkpt>
      <trkpt lat="45.44826" lon="5.97928">
        <ele>403.41</ele>
        <time>2014-04-12T16:02:41Z</time>
      </trkpt>
      <trkpt lat="45.44795" lon="5.97938">
        <ele>400.24</ele>
        <time>2014-04-12T16:02:43Z</time>
      </trkpt>
      <trkpt lat="45.44766" lon="5.97938">
        <ele>398.39</ele>
        <time>2014-04-12T16:02:45Z</time>
      </trkpt>
      <trkpt lat="45.44742" lon="5.97932">
        <ele>394.73</ele>
        <time>2014-04-12T16:02:47Z</time>
      </trkpt>
      <trkpt lat="45.4472" lon="5.97936">
        <ele>387.93</ele>
        <time>2014-04-12T16:02:50Z</time>
      </trkpt>
      <trkpt lat="45.44695" lon="5.97942">
        <ele>380.57</ele>
        <time>2014-04-12T16:02:53Z</time>
      </trkpt>
      <trkpt lat="45.44671" lon="5.97943">
        <ele>370.81</ele>
        <time>2014-04-12T16:02:56Z</time>
      </trkpt>
      <trkpt lat="45.44646" lon="5.97957">
        <ele>363.35</ele>
        <time>2014-04-12T16:02:59Z</time>
      </trkpt>
      <trkpt lat="45.44624" lon="5.97976">
        <ele>362.14</ele>
        <time>2014-04-12T16:03:01Z</time>
      </trkpt>
      <trkpt lat="45.44597" lon="5.97994">
        <ele>362.59</ele>
        <time>2014-04-12T16:03:03Z</time>
      </trkpt>
      <trkpt lat="45.4457" lon="5.98001">
        <ele>364.78</ele>
        <time>2014-04-12T16:03:05Z</time>
      </trkpt>
      <trkpt lat="45.44542" lon="5.98005">
        <ele>365.07</ele>
        <time>2014-04-12T16:03:07Z</time>
      </trkpt>
      <trkpt lat="45.44518" lon="5.98006">
        <ele>365.67</ele>
        <time>2014-04-12T16:03:09Z</time>
      </trkpt>
      <trkpt lat="45.44495" lon="5.98012">
        <ele>367.39</ele>
        <time>2014-04-12T16:03:11Z</time>
      </trkpt>
      <trkpt lat="45.44472" lon="5.98019">
        <ele>369.79</ele>
        <time>2014-04-12T16:03:13Z</time>
      </trkpt>
      <trkpt lat="45.44448" lon="5.98027">
        <ele>370.7</ele>
        <time>2014-04-12T16:03:15Z</time>
      </trkpt>
      <trkpt lat="45.44427" lon="5.98033">
        <ele>370.72</ele>
        <time>2014-04-12T16:03:17Z</time>
      </trkpt>
      <trkpt lat="45.44403" lon="5.98046">
        <ele>370.23</ele>
        <time>2014-04-12T16:03:20Z</time>
      </trkpt>
      <trkpt lat="45.44381" lon="5.98048">
        <ele>368.19</ele>
        <time>2014-04-12T16:03:24Z</time>
      </trkpt>
      <trkpt lat="45.44362" lon="5.98032">
        <ele>367.27</ele>
        <time>2014-04-12T16:03:28Z</time>
      </trkpt>
      <trkpt lat="45.44357" lon="5.98004">
        <ele>364.88</ele>
        <time>2014-04-12T16:08:21Z</time>
      </trkpt>
      <trkpt lat="45.44338" lon="5.98004">
        <ele>372.58</ele>
        <time>2014-04-12T16:29:29Z</time>
      </trkpt>
      <trkpt lat="45.44356" lon="5.98">
        <ele>367.8</ele>
        <time>2014-04-12T16:34:02Z</time>
      </trkpt>
      <trkpt lat="45.44369" lon="5.98017">
        <ele>359.07</ele>
        <time>2014-04-12T16:37:12Z</time>
      </trkpt>
      <trkpt lat="45.44353" lon="5.98005">
        <ele>360.6</ele>
        <time>2014-04-12T16:42:11Z</time>
      </trkpt>
      <trkpt lat="45.44372" lon="5.9801">
        <ele>375.14</ele>
        <time>2014-04-12T17:10:18Z</time>
      </trkpt>
      <trkpt lat="45.44354" lon="5.98004">
        <ele>378.13</ele>
        <time>2014-04-12T17:14:02Z</time>
      </trkpt>
      <trkpt lat="45.44371" lon="5.98015">
        <ele>361.38</ele>
        <time>2014-04-12T17:24:00Z</time>
      </trkpt>
      <trkpt lat="45.44382" lon="5.98037">
        <ele>357.64</ele>
        <time>2014-04-12T17:26:41Z</time>
      </trkpt>
      <trkpt lat="45.44396" lon="5.98054">
        <ele>363.62</ele>
        <time>2014-04-12T17:26:49Z</time>
      </trkpt>
      <trkpt lat="45.44379" lon="5.98068">
        <ele>362.16</ele>
        <time>2014-04-12T17:26:54Z</time>
      </trkpt>
      <trkpt lat="45.44358" lon="5.98075">
        <ele>357.32</ele>
        <time>2014-04-12T17:26:57Z</time>
      </trkpt>
      <trkpt lat="45.44336" lon="5.98073">
        <ele>354.34</ele>
        <time>2014-04-12T17:27:01Z</time>
      </trkpt>
      <trkpt lat="45.44316" lon="5.98062">
        <ele>353.73</ele>
        <time>2014-04-12T17:27:04Z</time>
      </trkpt>
      <trkpt lat="45.44298" lon="5.98054">
        <ele>352.91</ele>
        <time>2014-04-12T17:27:07Z</time>
      </trkpt>
      <trkpt lat="45.4428" lon="5.98047">
        <ele>354.59</ele>
        <time>2014-04-12T17:27:10Z</time>
      </trkpt>
      <trkpt lat="45.44263" lon="5.98041">
        <ele>356.37</ele>
        <time>2014-04-12T17:27:13Z</time>
      </trkpt>
      <trkpt lat="45.44241" lon="5.9803">
        <ele>357.13</ele>
        <time>2014-04-12T17:27:17Z</time>
      </trkpt>
      <trkpt lat="45.44221" lon="5.98024">
        <ele>355.86</ele>
        <time>2014-04-12T17:27:21Z</time>
      </trkpt>
      <trkpt lat="45.44199" lon="5.98019">
        <ele>354.33</ele>
        <time>2014-04-12T17:27:25Z</time>
      </trkpt>
      <trkpt lat="45.44179" lon="5.98018">
        <ele>354.35</ele>
        <time>2014-04-12T17:27:29Z</time>
      </trkpt>
      <trkpt lat="45.4416" lon="5.98018">
        <ele>351.8</ele>
        <time>2014-04-12T17:27:33Z</time>
      </trkpt>
      <trkpt lat="45.44138" lon="5.9802">
        <ele>347.47</ele>
        <time>2014-04-12T17:27:37Z</time>
      </trkpt>
      <trkpt lat="45.44117" lon="5.98024">
        <ele>343.45</ele>
        <time>2014-04-12T17:27:41Z</time>
      </trkpt>
      <trkpt lat="45.44095" lon="5.98025">
        <ele>341.47</ele>
        <time>2014-04-12T17:27:45Z</time>
      </trkpt>
      <trkpt lat="45.44072" lon="5.98028">
        <ele>342.88</ele>
        <time>2014-04-12T17:27:49Z</time>
      </trkpt>
      <trkpt lat="45.44048" lon="5.98028">
        <ele>343.81</ele>
        <time>2014-04-12T17:27:53Z</time>
      </trkpt>
      <trkpt lat="45.4403" lon="5.98023">
        <ele>345.57</ele>
        <time>2014-04-12T17:27:56Z</time>
      </trkpt>
      <trkpt lat="45.44011" lon="5.98019">
        <ele>351.81</ele>
        <time>2014-04-12T17:28:00Z</time>
      </trkpt>
      <trkpt lat="45.4399" lon="5.98013">
        <ele>355.08</ele>
        <time>2014-04-12T17:28:05Z</time>
      </trkpt>
      <trkpt lat="45.43969" lon="5.98009">
        <ele>356.93</ele>
        <time>2014-04-12T17:28:11Z</time>
      </trkpt>
      <trkpt lat="45.43951" lon="5.98004">
        <ele>354.55</ele>
        <time>2014-04-12T17:28:16Z</time>
      </trkpt>
      <trkpt lat="45.4393" lon="5.97998">
        <ele>349.82</ele>
        <time>2014-04-12T17:28:21Z</time>
      </trkpt>
      <trkpt lat="45.43911" lon="5.97988">
        <ele>357.41</ele>
        <time>2014-04-12T17:28:26Z</time>
      </trkpt>
      <trkpt lat="45.43893" lon="5.97983">
        <ele>359</ele>
        <time>2014-04-12T17:28:31Z</time>
      </trkpt>
      <trkpt lat="45.43875" lon="5.9797">
        <ele>355.9</ele>
        <time>2014-04-12T17:28:35Z</time>
      </trkpt>
      <trkpt lat="45.43857" lon="5.97953">
        <ele>348.89</ele>
        <time>2014-04-12T17:28:40Z</time>
      </trkpt>
      <trkpt lat="45.43839" lon="5.9794">
        <ele>348</ele>
        <time>2014-04-12T17:28:44Z</time>
      </trkpt>
      <trkpt lat="45.43816" lon="5.9793">
        <ele>349.83</ele>
        <time>2014-04-12T17:28:48Z</time>
      </trkpt>
      <trkpt lat="45.43799" lon="5.97922">
        <ele>350.58</ele>
        <time>2014-04-12T17:28:51Z</time>
      </trkpt>
      <trkpt lat="45.43781" lon="5.9791">
        <ele>352.41</ele>
        <time>2014-04-12T17:28:55Z</time>
      </trkpt>
      <trkpt lat="45.43758" lon="5.97898">
        <ele>354.57</ele>
        <time>2014-04-12T17:28:59Z</time>
      </trkpt>
      <trkpt lat="45.43738" lon="5.97887">
        <ele>355.36</ele>
        <time>2014-04-12T17:29:02Z</time>
      </trkpt>
      <trkpt lat="45.43719" lon="5.97879">
        <ele>350.53</ele>
        <time>2014-04-12T17:29:05Z</time>
      </trkpt>
      <trkpt lat="45.43701" lon="5.9787">
        <ele>347.08</ele>
        <time>2014-04-12T17:29:08Z</time>
      </trkpt>
      <trkpt lat="45.43679" lon="5.97864">
        <ele>343.04</ele>
        <time>2014-04-12T17:29:11Z</time>
      </trkpt>
      <trkpt lat="45.43658" lon="5.97854">
        <ele>340.9</ele>
        <time>2014-04-12T17:29:14Z</time>
      </trkpt>
      <trkpt lat="45.4364" lon="5.97845">
        <ele>338.36</ele>
        <time>2014-04-12T17:29:17Z</time>
      </trkpt>
      <trkpt lat="45.43617" lon="5.97838">
        <ele>335.13</ele>
        <time>2014-04-12T17:29:21Z</time>
      </trkpt>
      <trkpt lat="45.43598" lon="5.97837">
        <ele>337.45</ele>
        <time>2014-04-12T17:29:24Z</time>
      </trkpt>
      <trkpt lat="45.43576" lon="5.97838">
        <ele>339.79</ele>
        <time>2014-04-12T17:29:28Z</time>
      </trkpt>
      <trkpt lat="45.43553" lon="5.97838">
        <ele>338.58</ele>
        <time>2014-04-12T17:29:32Z</time>
      </trkpt>
      <trkpt lat="45.43534" lon="5.97838">
        <ele>339.16</ele>
        <time>2014-04-12T17:29:35Z</time>
      </trkpt>
      <trkpt lat="45.43515" lon="5.97842">
        <ele>340.84</ele>
        <time>2014-04-12T17:29:38Z</time>
      </trkpt>
      <trkpt lat="45.43493" lon="5.9784">
        <ele>342.71</ele>
        <time>2014-04-12T17:29:41Z</time>
      </trkpt>
      <trkpt lat="45.43475" lon="5.97836">
        <ele>344.77</ele>
        <time>2014-04-12T17:29:44Z</time>
      </trkpt>
      <trkpt lat="45.43457" lon="5.97849">
        <ele>345.97</ele>
        <time>2014-04-12T17:29:50Z</time>
      </trkpt>
      <trkpt lat="45.43455" lon="5.97876">
        <ele>345.2</ele>
        <time>2014-04-12T17:29:53Z</time>
      </trkpt>
      <trkpt lat="45.43451" lon="5.97904">
        <ele>344.81</ele>
        <time>2014-04-12T17:29:56Z</time>
      </trkpt>
      <trkpt lat="45.43447" lon="5.97933">
        <ele>342.94</ele>
        <time>2014-04-12T17:29:59Z</time>
      </trkpt>
      <trkpt lat="45.43439" lon="5.97966">
        <ele>340.12</ele>
        <time>2014-04-12T17:30:02Z</time>
      </trkpt>
      <trkpt lat="45.43433" lon="5.97992">
        <ele>338.33</ele>
        <time>2014-04-12T17:30:04Z</time>
      </trkpt>
      <trkpt lat="45.43426" lon="5.9802">
        <ele>338.26</ele>
        <time>2014-04-12T17:30:06Z</time>
      </trkpt>
      <trkpt lat="45.4342" lon="5.98047">
        <ele>337.65</ele>
        <time>2014-04-12T17:30:08Z</time>
      </trkpt>
      <trkpt lat="45.43413" lon="5.98074">
        <ele>337.56</ele>
        <time>2014-04-12T17:30:10Z</time>
      </trkpt>
      <trkpt lat="45.43404" lon="5.98102">
        <ele>337</ele>
        <time>2014-04-12T17:30:13Z</time>
      </trkpt>
      <trkpt lat="45.43386" lon="5.98101">
        <ele>335.06</ele>
        <time>2014-04-12T17:30:22Z</time>
      </trkpt>
      <trkpt lat="45.43368" lon="5.98092">
        <ele>342.48</ele>
        <time>2014-04-12T17:30:29Z</time>
      </trkpt>
      <trkpt lat="45.4335" lon="5.9808">
        <ele>342.19</ele>
        <time>2014-04-12T17:30:35Z</time>
      </trkpt>
      <trkpt lat="45.43333" lon="5.9807">
        <ele>337.91</ele>
        <time>2014-04-12T17:30:40Z</time>
      </trkpt>
      <trkpt lat="45.43314" lon="5.9806">
        <ele>335.31</ele>
        <time>2014-04-12T17:30:46Z</time>
      </trkpt>
      <trkpt lat="45.43297" lon="5.98055">
        <ele>330.57</ele>
        <time>2014-04-12T17:30:50Z</time>
      </trkpt>
      <trkpt lat="45.43277" lon="5.98073">
        <ele>334.89</ele>
        <time>2014-04-12T17:30:54Z</time>
      </trkpt>
      <trkpt lat="45.43267" lon="5.98095">
        <ele>333.75</ele>
        <time>2014-04-12T17:30:58Z</time>
      </trkpt>
      <trkpt lat="45.43254" lon="5.98114">
        <ele>331.53</ele>
        <time>2014-04-12T17:31:01Z</time>
      </trkpt>
      <trkpt lat="45.43237" lon="5.98127">
        <ele>331.89</ele>
        <time>2014-04-12T17:31:04Z</time>
      </trkpt>
      <trkpt lat="45.43217" lon="5.98135">
        <ele>333.04</ele>
        <time>2014-04-12T17:31:07Z</time>
      </trkpt>
      <trkpt lat="45.43197" lon="5.98142">
        <ele>331.24</ele>
        <time>2014-04-12T17:31:10Z</time>
      </trkpt>
      <trkpt lat="45.43178" lon="5.98148">
        <ele>328.75</ele>
        <time>2014-04-12T17:31:13Z</time>
      </trkpt>
      <trkpt lat="45.4316" lon="5.98153">
        <ele>325.5</ele>
        <time>2014-04-12T17:31:16Z</time>
      </trkpt>
      <trkpt lat="45.43141" lon="5.9815">
        <ele>322.27</ele>
        <time>2014-04-12T17:31:20Z</time>
      </trkpt>
      <trkpt lat="45.43121" lon="5.9815">
        <ele>327.36</ele>
        <time>2014-04-12T17:31:25Z</time>
      </trkpt>
      <trkpt lat="45.43103" lon="5.98155">
        <ele>331.04</ele>
        <time>2014-04-12T17:31:28Z</time>
      </trkpt>
      <trkpt lat="45.43081" lon="5.98158">
        <ele>332.15</ele>
        <time>2014-04-12T17:31:31Z</time>
      </trkpt>
      <trkpt lat="45.4306" lon="5.98159">
        <ele>328.6</ele>
        <time>2014-04-12T17:31:34Z</time>
      </trkpt>
      <trkpt lat="45.43041" lon="5.98159">
        <ele>323.98</ele>
        <time>2014-04-12T17:31:37Z</time>
      </trkpt>
      <trkpt lat="45.43021" lon="5.98178">
        <ele>324.82</ele>
        <time>2014-04-12T17:31:41Z</time>
      </trkpt>
      <trkpt lat="45.43008" lon="5.98205">
        <ele>321</ele>
        <time>2014-04-12T17:31:45Z</time>
      </trkpt>
      <trkpt lat="45.42996" lon="5.98226">
        <ele>320.56</ele>
        <time>2014-04-12T17:33:16Z</time>
      </trkpt>
      <trkpt lat="45.42986" lon="5.98252">
        <ele>318.79</ele>
        <time>2014-04-12T17:33:23Z</time>
      </trkpt>
      <trkpt lat="45.42973" lon="5.98273">
        <ele>316.3</ele>
        <time>2014-04-12T17:33:28Z</time>
      </trkpt>
      <trkpt lat="45.42959" lon="5.98295">
        <ele>320.46</ele>
        <time>2014-04-12T17:33:33Z</time>
      </trkpt>
      <trkpt lat="45.42944" lon="5.98315">
        <ele>319.15</ele>
        <time>2014-04-12T17:33:38Z</time>
      </trkpt>
      <trkpt lat="45.42933" lon="5.98336">
        <ele>322.84</ele>
        <time>2014-04-12T17:33:43Z</time>
      </trkpt>
      <trkpt lat="45.42925" lon="5.9836">
        <ele>322.68</ele>
        <time>2014-04-12T17:33:50Z</time>
      </trkpt>
      <trkpt lat="45.42918" lon="5.98386">
        <ele>323.11</ele>
        <time>2014-04-12T17:33:58Z</time>
      </trkpt>
    </trkseg>
  </trk>
</gpx>